<?xml version='1.0' encoding='UTF-8'?><gpx version="1.1" creator="JPX - https://github.com/jenetics/jpx" xmlns="http://www.topografix.com/GPX/1/1"><trk><trkseg><trkpt lat="44.7481974" lon="9.1107094"><ele>899.0000000000001</ele><time>2026-04-11T09:16:35.301Z</time></trkpt><trkpt lat="44.7481235" lon="9.1107315"><ele>899.0</ele><time>2026-04-11T09:16:36.303Z</time></trkpt><trkpt lat="44.7480378" lon="9.1107385"><ele>899.0</ele><time>2026-04-11T09:16:37.3Z</time></trkpt><trkpt lat="44.7479577" lon="9.1107241"><ele>899.0</ele><time>2026-04-11T09:16:38.31Z</time></trkpt><trkpt lat="44.7478905" lon="9.1107001"><ele>899.0000000000001</ele><time>2026-04-11T09:16:39.297Z</time></trkpt><trkpt lat="44.7477698" lon="9.110664"><ele>899.0</ele><time>2026-04-11T09:16:41.301Z</time></trkpt><trkpt lat="44.7477052" lon="9.110639"><ele>901.1666666666667</ele><time>2026-04-11T09:16:42.302Z</time></trkpt><trkpt lat="44.7475814" lon="9.1106522"><ele>903.3333333333334</ele><time>2026-04-11T09:16:44.303Z</time></trkpt><trkpt lat="44.7475264" lon="9.1107015"><ele>905.5</ele><time>2026-04-11T09:16:45.291Z</time></trkpt><trkpt lat="44.74746" lon="9.110755"><ele>907.6666666666667</ele><time>2026-04-11T09:16:46.284Z</time></trkpt><trkpt lat="44.7474005" lon="9.1107862"><ele>909.8333333333334</ele><time>2026-04-11T09:16:47.289Z</time></trkpt><trkpt lat="44.7473375" lon="9.1108064"><ele>912.0</ele><time>2026-04-11T09:16:48.291Z</time></trkpt><trkpt lat="44.7472695" lon="9.1108164"><ele>912.5714285714286</ele><time>2026-04-11T09:16:49.295Z</time></trkpt><trkpt lat="44.7472053" lon="9.1108309"><ele>913.1428571428571</ele><time>2026-04-11T09:16:50.295Z</time></trkpt><trkpt lat="44.7471418" lon="9.1108563"><ele>913.7142857142857</ele><time>2026-04-11T09:16:51.286Z</time></trkpt><trkpt lat="44.7470879" lon="9.1109045"><ele>914.2857142857142</ele><time>2026-04-11T09:16:52.29Z</time></trkpt><trkpt lat="44.7470539" lon="9.1109876"><ele>914.8571428571429</ele><time>2026-04-11T09:16:53.282Z</time></trkpt><trkpt lat="44.7470228" lon="9.1110694"><ele>915.4285714285713</ele><time>2026-04-11T09:16:54.272Z</time></trkpt><trkpt lat="44.7469712" lon="9.1111554"><ele>916.0</ele><time>2026-04-11T09:16:56.282Z</time></trkpt><trkpt lat="44.7469215" lon="9.1112181"><ele>919.8333333333333</ele><time>2026-04-11T09:16:59.28Z</time></trkpt><trkpt lat="44.7468313" lon="9.1112966"><ele>923.6666666666666</ele><time>2026-04-11T09:17:01.3Z</time></trkpt><trkpt lat="44.7467203" lon="9.1113547"><ele>927.5</ele><time>2026-04-11T09:17:03.281Z</time></trkpt><trkpt lat="44.7466554" lon="9.111381"><ele>931.3333333333333</ele><time>2026-04-11T09:17:04.283Z</time></trkpt><trkpt lat="44.7465898" lon="9.1114219"><ele>935.1666666666666</ele><time>2026-04-11T09:17:05.282Z</time></trkpt><trkpt lat="44.7465205" lon="9.1114628"><ele>939.0</ele><time>2026-04-11T09:17:06.282Z</time></trkpt><trkpt lat="44.7464492" lon="9.1114991"><ele>939.0</ele><time>2026-04-11T09:17:07.281Z</time></trkpt><trkpt lat="44.746377" lon="9.1115329"><ele>939.0</ele><time>2026-04-11T09:17:08.278Z</time></trkpt><trkpt lat="44.746313" lon="9.1115671"><ele>939.0</ele><time>2026-04-11T09:17:09.281Z</time></trkpt><trkpt lat="44.7462248" lon="9.1116603"><ele>939.0</ele><time>2026-04-11T09:17:11.285Z</time></trkpt><trkpt lat="44.746225" lon="9.1118218"><ele>939.0</ele><time>2026-04-11T09:17:13.277Z</time></trkpt><trkpt lat="44.7462347" lon="9.1119248"><ele>939.0</ele><time>2026-04-11T09:17:14.274Z</time></trkpt><trkpt lat="44.7462441" lon="9.1120395"><ele>938.4000000000001</ele><time>2026-04-11T09:17:15.277Z</time></trkpt><trkpt lat="44.7462384" lon="9.1121644"><ele>937.8000000000001</ele><time>2026-04-11T09:17:16.281Z</time></trkpt><trkpt lat="44.7462218" lon="9.1122949"><ele>937.1999999999999</ele><time>2026-04-11T09:17:17.274Z</time></trkpt><trkpt lat="44.7462048" lon="9.1124221"><ele>936.5999999999999</ele><time>2026-04-11T09:17:18.269Z</time></trkpt><trkpt lat="44.7461777" lon="9.1125174"><ele>936.0</ele><time>2026-04-11T09:17:19.281Z</time></trkpt><trkpt lat="44.7461287" lon="9.1126733"><ele>936.0</ele><time>2026-04-11T09:17:21.274Z</time></trkpt><trkpt lat="44.7460774" lon="9.1128144"><ele>935.9999999999999</ele><time>2026-04-11T09:17:23.274Z</time></trkpt><trkpt lat="44.745984" lon="9.1129371"><ele>935.9999999999999</ele><time>2026-04-11T09:17:25.277Z</time></trkpt><trkpt lat="44.7459284" lon="9.1129899"><ele>936.0</ele><time>2026-04-11T09:17:26.274Z</time></trkpt><trkpt lat="44.7458598" lon="9.1130366"><ele>936.0</ele><time>2026-04-11T09:17:27.277Z</time></trkpt><trkpt lat="44.7457891" lon="9.1130785"><ele>940.5</ele><time>2026-04-11T09:17:28.277Z</time></trkpt><trkpt lat="44.7457257" lon="9.1131027"><ele>945.0</ele><time>2026-04-11T09:17:29.272Z</time></trkpt><trkpt lat="44.7456187" lon="9.1131396"><ele>949.5</ele><time>2026-04-11T09:17:31.271Z</time></trkpt><trkpt lat="44.7455468" lon="9.1131054"><ele>954.0</ele><time>2026-04-11T09:17:33.273Z</time></trkpt><trkpt lat="44.7455249" lon="9.1129951"><ele>958.5</ele><time>2026-04-11T09:17:35.271Z</time></trkpt><trkpt lat="44.7455587" lon="9.1128676"><ele>963.0</ele><time>2026-04-11T09:17:37.276Z</time></trkpt><trkpt lat="44.7455847" lon="9.1127828"><ele>963.0000000000001</ele><time>2026-04-11T09:17:38.275Z</time></trkpt><trkpt lat="44.7456093" lon="9.1126894"><ele>963.0</ele><time>2026-04-11T09:17:39.275Z</time></trkpt><trkpt lat="44.7456259" lon="9.1125911"><ele>963.0000000000001</ele><time>2026-04-11T09:17:40.28Z</time></trkpt><trkpt lat="44.7456425" lon="9.1124937"><ele>963.0000000000001</ele><time>2026-04-11T09:17:41.285Z</time></trkpt><trkpt lat="44.7456614" lon="9.1123939"><ele>963.0</ele><time>2026-04-11T09:17:42.287Z</time></trkpt><trkpt lat="44.7456863" lon="9.1123013"><ele>963.0000000000001</ele><time>2026-04-11T09:17:43.283Z</time></trkpt><trkpt lat="44.7457016" lon="9.1122106"><ele>963.0000000000001</ele><time>2026-04-11T09:17:44.282Z</time></trkpt><trkpt lat="44.745699" lon="9.1121205"><ele>963.0</ele><time>2026-04-11T09:17:45.29Z</time></trkpt><trkpt lat="44.7456632" lon="9.1120342"><ele>963.0</ele><time>2026-04-11T09:17:46.299Z</time></trkpt><trkpt lat="44.7456082" lon="9.1119643"><ele>963.0</ele><time>2026-04-11T09:17:47.288Z</time></trkpt><trkpt lat="44.7455436" lon="9.1119005"><ele>963.0</ele><time>2026-04-11T09:17:48.292Z</time></trkpt><trkpt lat="44.7454735" lon="9.1118385"><ele>963.0</ele><time>2026-04-11T09:17:49.284Z</time></trkpt><trkpt lat="44.7453899" lon="9.1117863"><ele>963.0</ele><time>2026-04-11T09:17:50.289Z</time></trkpt><trkpt lat="44.7452951" lon="9.1117325"><ele>966.8333333333334</ele><time>2026-04-11T09:17:51.29Z</time></trkpt><trkpt lat="44.7451988" lon="9.1116795"><ele>970.6666666666667</ele><time>2026-04-11T09:17:52.286Z</time></trkpt><trkpt lat="44.7451132" lon="9.1116256"><ele>974.5</ele><time>2026-04-11T09:17:53.277Z</time></trkpt><trkpt lat="44.7450494" lon="9.1115534"><ele>978.3333333333334</ele><time>2026-04-11T09:17:54.29Z</time></trkpt><trkpt lat="44.7449991" lon="9.1114656"><ele>982.1666666666667</ele><time>2026-04-11T09:17:55.291Z</time></trkpt><trkpt lat="44.7449629" lon="9.1113633"><ele>986.0</ele><time>2026-04-11T09:17:56.282Z</time></trkpt><trkpt lat="44.744948" lon="9.1112576"><ele>986.0000000000001</ele><time>2026-04-11T09:17:57.285Z</time></trkpt><trkpt lat="44.7449563" lon="9.1111456"><ele>986.0</ele><time>2026-04-11T09:17:58.289Z</time></trkpt><trkpt lat="44.7449754" lon="9.1110359"><ele>986.0</ele><time>2026-04-11T09:17:59.298Z</time></trkpt><trkpt lat="44.7449841" lon="9.1109213"><ele>986.0</ele><time>2026-04-11T09:18:00.299Z</time></trkpt><trkpt lat="44.7449823" lon="9.1108001"><ele>986.0000000000001</ele><time>2026-04-11T09:18:01.29Z</time></trkpt><trkpt lat="44.7449639" lon="9.1106852"><ele>986.0</ele><time>2026-04-11T09:18:02.299Z</time></trkpt><trkpt lat="44.7449283" lon="9.1105962"><ele>984.0</ele><time>2026-04-11T09:18:03.293Z</time></trkpt><trkpt lat="44.7448067" lon="9.1105384"><ele>981.9999999999999</ele><time>2026-04-11T09:18:05.292Z</time></trkpt><trkpt lat="44.7447312" lon="9.1105497"><ele>979.9999999999999</ele><time>2026-04-11T09:18:06.297Z</time></trkpt><trkpt lat="44.7446516" lon="9.1105791"><ele>978.0</ele><time>2026-04-11T09:18:07.295Z</time></trkpt><trkpt lat="44.7445707" lon="9.1106341"><ele>976.0</ele><time>2026-04-11T09:18:08.293Z</time></trkpt><trkpt lat="44.744493" lon="9.1107014"><ele>977.6666666666666</ele><time>2026-04-11T09:18:09.29Z</time></trkpt><trkpt lat="44.7444222" lon="9.1107672"><ele>979.3333333333333</ele><time>2026-04-11T09:18:10.287Z</time></trkpt><trkpt lat="44.744358" lon="9.1108365"><ele>981.0</ele><time>2026-04-11T09:18:11.289Z</time></trkpt><trkpt lat="44.7443059" lon="9.1109124"><ele>982.6666666666667</ele><time>2026-04-11T09:18:12.289Z</time></trkpt><trkpt lat="44.7442624" lon="9.1109967"><ele>984.3333333333334</ele><time>2026-04-11T09:18:13.287Z</time></trkpt><trkpt lat="44.7442382" lon="9.1110886"><ele>986.0</ele><time>2026-04-11T09:18:14.296Z</time></trkpt><trkpt lat="44.744229" lon="9.1111842"><ele>989.8</ele><time>2026-04-11T09:18:15.288Z</time></trkpt><trkpt lat="44.7442453" lon="9.111279"><ele>993.5999999999999</ele><time>2026-04-11T09:18:16.289Z</time></trkpt><trkpt lat="44.7442597" lon="9.1113719"><ele>997.4</ele><time>2026-04-11T09:18:17.279Z</time></trkpt><trkpt lat="44.744264" lon="9.1115075"><ele>1001.2</ele><time>2026-04-11T09:18:19.286Z</time></trkpt><trkpt lat="44.7442385" lon="9.111685"><ele>1005.0</ele><time>2026-04-11T09:18:21.292Z</time></trkpt><trkpt lat="44.7441925" lon="9.1118448"><ele>1005.8333333333334</ele><time>2026-04-11T09:18:23.297Z</time></trkpt><trkpt lat="44.7441958" lon="9.1120041"><ele>1006.6666666666667</ele><time>2026-04-11T09:18:25.291Z</time></trkpt><trkpt lat="44.7442366" lon="9.112097"><ele>1007.5</ele><time>2026-04-11T09:18:26.285Z</time></trkpt><trkpt lat="44.7442689" lon="9.1121942"><ele>1008.3333333333334</ele><time>2026-04-11T09:18:27.299Z</time></trkpt><trkpt lat="44.7442964" lon="9.1122909"><ele>1009.1666666666667</ele><time>2026-04-11T09:18:28.29Z</time></trkpt><trkpt lat="44.7443348" lon="9.1123847"><ele>1010.0</ele><time>2026-04-11T09:18:29.293Z</time></trkpt><trkpt lat="44.7443781" lon="9.1124717"><ele>1011.6</ele><time>2026-04-11T09:18:30.296Z</time></trkpt><trkpt lat="44.7444236" lon="9.1125446"><ele>1013.2</ele><time>2026-04-11T09:18:31.288Z</time></trkpt><trkpt lat="44.7444703" lon="9.1126713"><ele>1014.8</ele><time>2026-04-11T09:18:33.301Z</time></trkpt><trkpt lat="44.7444413" lon="9.1128036"><ele>1016.4</ele><time>2026-04-11T09:18:35.293Z</time></trkpt><trkpt lat="44.7443703" lon="9.112961"><ele>1018.0</ele><time>2026-04-11T09:18:37.297Z</time></trkpt><trkpt lat="44.7443232" lon="9.1130524"><ele>1017.9999999999999</ele><time>2026-04-11T09:18:38.287Z</time></trkpt><trkpt lat="44.7442748" lon="9.1131376"><ele>1018.0</ele><time>2026-04-11T09:18:39.298Z</time></trkpt><trkpt lat="44.7442187" lon="9.1132289"><ele>1018.0</ele><time>2026-04-11T09:18:40.296Z</time></trkpt><trkpt lat="44.7441577" lon="9.113316"><ele>1018.0</ele><time>2026-04-11T09:18:41.294Z</time></trkpt><trkpt lat="44.7440963" lon="9.1133977"><ele>1017.9999999999999</ele><time>2026-04-11T09:18:42.295Z</time></trkpt><trkpt lat="44.7440329" lon="9.1134775"><ele>1018.0</ele><time>2026-04-11T09:18:43.29Z</time></trkpt><trkpt lat="44.7439621" lon="9.1135446"><ele>1018.8333333333333</ele><time>2026-04-11T09:18:44.291Z</time></trkpt><trkpt lat="44.7438891" lon="9.1135826"><ele>1019.6666666666666</ele><time>2026-04-11T09:18:45.293Z</time></trkpt><trkpt lat="44.7438102" lon="9.1136085"><ele>1020.5</ele><time>2026-04-11T09:18:46.282Z</time></trkpt><trkpt lat="44.7437472" lon="9.113642"><ele>1021.3333333333333</ele><time>2026-04-11T09:18:47.29Z</time></trkpt><trkpt lat="44.7436652" lon="9.1137779"><ele>1022.1666666666666</ele><time>2026-04-11T09:18:49.29Z</time></trkpt><trkpt lat="44.7436632" lon="9.1138743"><ele>1023.0</ele><time>2026-04-11T09:18:50.279Z</time></trkpt><trkpt lat="44.7436709" lon="9.1139764"><ele>1023.0</ele><time>2026-04-11T09:18:51.282Z</time></trkpt><trkpt lat="44.7436574" lon="9.114067"><ele>1023.0</ele><time>2026-04-11T09:18:52.281Z</time></trkpt><trkpt lat="44.7436029" lon="9.114212"><ele>1023.0</ele><time>2026-04-11T09:18:54.291Z</time></trkpt><trkpt lat="44.7435599" lon="9.1142904"><ele>1023.0</ele><time>2026-04-11T09:18:55.287Z</time></trkpt><trkpt lat="44.7435044" lon="9.1143635"><ele>1023.0</ele><time>2026-04-11T09:18:56.301Z</time></trkpt><trkpt lat="44.7434374" lon="9.1144312"><ele>1023.0</ele><time>2026-04-11T09:18:57.288Z</time></trkpt><trkpt lat="44.7433666" lon="9.1145002"><ele>1025.3333333333333</ele><time>2026-04-11T09:18:58.292Z</time></trkpt><trkpt lat="44.7433032" lon="9.1145647"><ele>1027.6666666666667</ele><time>2026-04-11T09:18:59.282Z</time></trkpt><trkpt lat="44.7432382" lon="9.1146319"><ele>1030.0</ele><time>2026-04-11T09:19:00.293Z</time></trkpt><trkpt lat="44.7431789" lon="9.1146985"><ele>1032.3333333333335</ele><time>2026-04-11T09:19:01.283Z</time></trkpt><trkpt lat="44.7431238" lon="9.1147762"><ele>1034.6666666666667</ele><time>2026-04-11T09:19:02.283Z</time></trkpt><trkpt lat="44.7430723" lon="9.1148587"><ele>1037.0</ele><time>2026-04-11T09:19:03.279Z</time></trkpt><trkpt lat="44.7430282" lon="9.1149397"><ele>1037.0</ele><time>2026-04-11T09:19:04.29Z</time></trkpt><trkpt lat="44.7429487" lon="9.1150526"><ele>1037.0</ele><time>2026-04-11T09:19:06.284Z</time></trkpt><trkpt lat="44.7428401" lon="9.1150849"><ele>1037.0</ele><time>2026-04-11T09:19:08.272Z</time></trkpt><trkpt lat="44.7427187" lon="9.1150153"><ele>1037.0</ele><time>2026-04-11T09:19:10.277Z</time></trkpt><trkpt lat="44.7426581" lon="9.1149883"><ele>1037.0</ele><time>2026-04-11T09:19:11.275Z</time></trkpt><trkpt lat="44.7425366" lon="9.1150102"><ele>1041.0</ele><time>2026-04-11T09:19:13.277Z</time></trkpt><trkpt lat="44.7424653" lon="9.1150409"><ele>1045.0</ele><time>2026-04-11T09:19:14.278Z</time></trkpt><trkpt lat="44.7423895" lon="9.1150688"><ele>1049.0</ele><time>2026-04-11T09:19:15.278Z</time></trkpt><trkpt lat="44.7423116" lon="9.1150972"><ele>1053.0</ele><time>2026-04-11T09:19:16.272Z</time></trkpt><trkpt lat="44.7422371" lon="9.1151377"><ele>1057.0</ele><time>2026-04-11T09:19:17.274Z</time></trkpt><trkpt lat="44.7421719" lon="9.1151878"><ele>1061.0</ele><time>2026-04-11T09:19:18.276Z</time></trkpt><trkpt lat="44.7421142" lon="9.1152502"><ele>1061.0</ele><time>2026-04-11T09:19:19.277Z</time></trkpt><trkpt lat="44.7420659" lon="9.1153189"><ele>1061.0</ele><time>2026-04-11T09:19:20.277Z</time></trkpt><trkpt lat="44.7419603" lon="9.1154114"><ele>1061.0</ele><time>2026-04-11T09:19:22.282Z</time></trkpt><trkpt lat="44.7418347" lon="9.1154196"><ele>1061.0</ele><time>2026-04-11T09:19:24.282Z</time></trkpt><trkpt lat="44.7417708" lon="9.1154101"><ele>1061.0</ele><time>2026-04-11T09:19:25.285Z</time></trkpt><trkpt lat="44.7417059" lon="9.1154012"><ele>1061.0</ele><time>2026-04-11T09:19:26.285Z</time></trkpt><trkpt lat="44.7416419" lon="9.1153833"><ele>1063.6666666666667</ele><time>2026-04-11T09:19:27.283Z</time></trkpt><trkpt lat="44.7415737" lon="9.1153625"><ele>1066.3333333333335</ele><time>2026-04-11T09:19:28.285Z</time></trkpt><trkpt lat="44.7414988" lon="9.1153493"><ele>1069.0</ele><time>2026-04-11T09:19:29.278Z</time></trkpt><trkpt lat="44.7414228" lon="9.1153505"><ele>1071.6666666666667</ele><time>2026-04-11T09:19:30.288Z</time></trkpt><trkpt lat="44.7413424" lon="9.1153687"><ele>1074.3333333333333</ele><time>2026-04-11T09:19:31.277Z</time></trkpt><trkpt lat="44.7412588" lon="9.1153874"><ele>1077.0</ele><time>2026-04-11T09:19:32.274Z</time></trkpt><trkpt lat="44.741172" lon="9.1153962"><ele>1077.0</ele><time>2026-04-11T09:19:33.273Z</time></trkpt><trkpt lat="44.7410869" lon="9.115399"><ele>1077.0</ele><time>2026-04-11T09:19:34.281Z</time></trkpt><trkpt lat="44.7410051" lon="9.1153864"><ele>1077.0</ele><time>2026-04-11T09:19:35.291Z</time></trkpt><trkpt lat="44.7409216" lon="9.1153651"><ele>1077.0</ele><time>2026-04-11T09:19:36.279Z</time></trkpt><trkpt lat="44.7408403" lon="9.1153326"><ele>1077.0</ele><time>2026-04-11T09:19:37.281Z</time></trkpt><trkpt lat="44.7407699" lon="9.1153133"><ele>1077.0</ele><time>2026-04-11T09:19:38.271Z</time></trkpt><trkpt lat="44.7407059" lon="9.1153157"><ele>1078.1666666666667</ele><time>2026-04-11T09:19:39.279Z</time></trkpt><trkpt lat="44.7406097" lon="9.1154294"><ele>1079.3333333333333</ele><time>2026-04-11T09:19:41.282Z</time></trkpt><trkpt lat="44.7405964" lon="9.1155329"><ele>1080.5</ele><time>2026-04-11T09:19:42.277Z</time></trkpt><trkpt lat="44.7406135" lon="9.1156424"><ele>1081.6666666666665</ele><time>2026-04-11T09:19:43.274Z</time></trkpt><trkpt lat="44.7406325" lon="9.1157553"><ele>1082.8333333333333</ele><time>2026-04-11T09:19:44.273Z</time></trkpt><trkpt lat="44.7406412" lon="9.115865"><ele>1084.0</ele><time>2026-04-11T09:19:45.28Z</time></trkpt><trkpt lat="44.7406518" lon="9.1159749"><ele>1084.0</ele><time>2026-04-11T09:19:46.273Z</time></trkpt><trkpt lat="44.7406555" lon="9.1160854"><ele>1084.0</ele><time>2026-04-11T09:19:47.279Z</time></trkpt><trkpt lat="44.7406654" lon="9.1161911"><ele>1084.0</ele><time>2026-04-11T09:19:48.271Z</time></trkpt><trkpt lat="44.7406741" lon="9.1162892"><ele>1084.0</ele><time>2026-04-11T09:19:49.285Z</time></trkpt><trkpt lat="44.7406751" lon="9.1164653"><ele>1084.0</ele><time>2026-04-11T09:19:51.285Z</time></trkpt><trkpt lat="44.7406668" lon="9.1165538"><ele>1084.0</ele><time>2026-04-11T09:19:52.28Z</time></trkpt><trkpt lat="44.7406514" lon="9.116645"><ele>1085.2857142857142</ele><time>2026-04-11T09:19:53.296Z</time></trkpt><trkpt lat="44.740632" lon="9.1167362"><ele>1086.5714285714287</ele><time>2026-04-11T09:19:54.285Z</time></trkpt><trkpt lat="44.7406118" lon="9.1168308"><ele>1087.857142857143</ele><time>2026-04-11T09:19:55.29Z</time></trkpt><trkpt lat="44.7405839" lon="9.1169313"><ele>1089.142857142857</ele><time>2026-04-11T09:19:56.285Z</time></trkpt><trkpt lat="44.7405438" lon="9.1170238"><ele>1090.4285714285713</ele><time>2026-04-11T09:19:57.288Z</time></trkpt><trkpt lat="44.7404957" lon="9.1171048"><ele>1091.7142857142858</ele><time>2026-04-11T09:19:58.284Z</time></trkpt><trkpt lat="44.7404421" lon="9.1171759"><ele>1093.0</ele><time>2026-04-11T09:19:59.282Z</time></trkpt><trkpt lat="44.740376" lon="9.1172335"><ele>1093.0</ele><time>2026-04-11T09:20:00.296Z</time></trkpt><trkpt lat="44.7403064" lon="9.1172852"><ele>1093.0</ele><time>2026-04-11T09:20:01.292Z</time></trkpt><trkpt lat="44.7402335" lon="9.117329"><ele>1093.0</ele><time>2026-04-11T09:20:02.291Z</time></trkpt><trkpt lat="44.7401543" lon="9.1173633"><ele>1093.0</ele><time>2026-04-11T09:20:03.29Z</time></trkpt><trkpt lat="44.7400749" lon="9.1173914"><ele>1093.0</ele><time>2026-04-11T09:20:04.284Z</time></trkpt><trkpt lat="44.7399968" lon="9.1174161"><ele>1093.0</ele><time>2026-04-11T09:20:05.288Z</time></trkpt><trkpt lat="44.7399174" lon="9.1174417"><ele>1095.0</ele><time>2026-04-11T09:20:06.304Z</time></trkpt><trkpt lat="44.7398353" lon="9.1174664"><ele>1097.0</ele><time>2026-04-11T09:20:07.288Z</time></trkpt><trkpt lat="44.7397605" lon="9.1174942"><ele>1099.0</ele><time>2026-04-11T09:20:08.278Z</time></trkpt><trkpt lat="44.7396827" lon="9.1175178"><ele>1101.0</ele><time>2026-04-11T09:20:09.28Z</time></trkpt><trkpt lat="44.739602" lon="9.1175473"><ele>1103.0</ele><time>2026-04-11T09:20:10.282Z</time></trkpt><trkpt lat="44.7395188" lon="9.1175823"><ele>1105.0</ele><time>2026-04-11T09:20:11.276Z</time></trkpt><trkpt lat="44.7394324" lon="9.1176144"><ele>1108.5</ele><time>2026-04-11T09:20:12.286Z</time></trkpt><trkpt lat="44.7393462" lon="9.1176385"><ele>1112.0</ele><time>2026-04-11T09:20:13.278Z</time></trkpt><trkpt lat="44.7392615" lon="9.1176591"><ele>1115.5</ele><time>2026-04-11T09:20:14.287Z</time></trkpt><trkpt lat="44.7391732" lon="9.1176731"><ele>1119.0</ele><time>2026-04-11T09:20:15.283Z</time></trkpt><trkpt lat="44.7390904" lon="9.1176881"><ele>1122.5</ele><time>2026-04-11T09:20:16.279Z</time></trkpt><trkpt lat="44.7390124" lon="9.1177072"><ele>1126.0</ele><time>2026-04-11T09:20:17.275Z</time></trkpt><trkpt lat="44.7389076" lon="9.1177635"><ele>1126.0</ele><time>2026-04-11T09:20:19.275Z</time></trkpt><trkpt lat="44.7388178" lon="9.1177879"><ele>1126.0</ele><time>2026-04-11T09:20:21.276Z</time></trkpt><trkpt lat="44.7387287" lon="9.1177266"><ele>1126.0</ele><time>2026-04-11T09:20:23.281Z</time></trkpt><trkpt lat="44.7386912" lon="9.1176294"><ele>1126.0</ele><time>2026-04-11T09:20:25.268Z</time></trkpt><trkpt lat="44.7387036" lon="9.1174841"><ele>1126.0</ele><time>2026-04-11T09:20:27.28Z</time></trkpt><trkpt lat="44.738762" lon="9.11735"><ele>1126.6</ele><time>2026-04-11T09:20:29.278Z</time></trkpt><trkpt lat="44.7388362" lon="9.1172225"><ele>1127.1999999999998</ele><time>2026-04-11T09:20:31.281Z</time></trkpt><trkpt lat="44.738912" lon="9.1170718"><ele>1127.8000000000002</ele><time>2026-04-11T09:20:33.285Z</time></trkpt><trkpt lat="44.7389397" lon="9.1169814"><ele>1128.4</ele><time>2026-04-11T09:20:34.288Z</time></trkpt><trkpt lat="44.738911" lon="9.1168599"><ele>1129.0</ele><time>2026-04-11T09:20:36.294Z</time></trkpt><trkpt lat="44.7388204" lon="9.1168933"><ele>1129.0</ele><time>2026-04-11T09:20:38.28Z</time></trkpt><trkpt lat="44.7387209" lon="9.116985"><ele>1129.0</ele><time>2026-04-11T09:20:40.287Z</time></trkpt><trkpt lat="44.738663" lon="9.1170292"><ele>1129.0</ele><time>2026-04-11T09:20:41.286Z</time></trkpt><trkpt lat="44.7386026" lon="9.1170583"><ele>1129.0</ele><time>2026-04-11T09:20:42.29Z</time></trkpt><trkpt lat="44.738537" lon="9.1170788"><ele>1129.0</ele><time>2026-04-11T09:20:43.295Z</time></trkpt><trkpt lat="44.7384698" lon="9.1170966"><ele>1129.0</ele><time>2026-04-11T09:20:44.295Z</time></trkpt><trkpt lat="44.7384027" lon="9.1171195"><ele>1131.5</ele><time>2026-04-11T09:20:45.29Z</time></trkpt><trkpt lat="44.7383389" lon="9.117138"><ele>1134.0</ele><time>2026-04-11T09:20:46.289Z</time></trkpt><trkpt lat="44.7382727" lon="9.1171471"><ele>1136.5</ele><time>2026-04-11T09:20:47.298Z</time></trkpt><trkpt lat="44.7381482" lon="9.1171495"><ele>1139.0</ele><time>2026-04-11T09:20:49.296Z</time></trkpt><trkpt lat="44.7380358" lon="9.117202"><ele>1141.5</ele><time>2026-04-11T09:20:51.291Z</time></trkpt><trkpt lat="44.7379841" lon="9.1172575"><ele>1144.0</ele><time>2026-04-11T09:20:52.294Z</time></trkpt><trkpt lat="44.7379291" lon="9.1173206"><ele>1143.9999999999998</ele><time>2026-04-11T09:20:53.287Z</time></trkpt><trkpt lat="44.7378732" lon="9.1173804"><ele>1144.0</ele><time>2026-04-11T09:20:54.285Z</time></trkpt><trkpt lat="44.7378122" lon="9.1174271"><ele>1144.0</ele><time>2026-04-11T09:20:55.294Z</time></trkpt><trkpt lat="44.7377486" lon="9.1174684"><ele>1144.0</ele><time>2026-04-11T09:20:56.299Z</time></trkpt><trkpt lat="44.7376808" lon="9.1175109"><ele>1144.0</ele><time>2026-04-11T09:20:57.291Z</time></trkpt><trkpt lat="44.7376088" lon="9.1175435"><ele>1143.9999999999998</ele><time>2026-04-11T09:20:58.291Z</time></trkpt><trkpt lat="44.737538" lon="9.1175658"><ele>1144.0</ele><time>2026-04-11T09:20:59.276Z</time></trkpt><trkpt lat="44.7374721" lon="9.1175815"><ele>1146.6666666666665</ele><time>2026-04-11T09:21:00.289Z</time></trkpt><trkpt lat="44.7374047" lon="9.1175812"><ele>1149.3333333333333</ele><time>2026-04-11T09:21:01.284Z</time></trkpt><trkpt lat="44.7372858" lon="9.1175674"><ele>1152.0</ele><time>2026-04-11T09:21:03.283Z</time></trkpt><trkpt lat="44.7372205" lon="9.1175658"><ele>1154.6666666666667</ele><time>2026-04-11T09:21:04.282Z</time></trkpt><trkpt lat="44.7371485" lon="9.117563"><ele>1157.3333333333335</ele><time>2026-04-11T09:21:05.287Z</time></trkpt><trkpt lat="44.7370754" lon="9.117562"><ele>1160.0</ele><time>2026-04-11T09:21:06.282Z</time></trkpt><trkpt lat="44.7369978" lon="9.117563"><ele>1160.0</ele><time>2026-04-11T09:21:07.289Z</time></trkpt><trkpt lat="44.7369201" lon="9.1175646"><ele>1160.0</ele><time>2026-04-11T09:21:08.301Z</time></trkpt><trkpt lat="44.7368389" lon="9.1175642"><ele>1160.0</ele><time>2026-04-11T09:21:09.287Z</time></trkpt><trkpt lat="44.7367566" lon="9.1175599"><ele>1160.0</ele><time>2026-04-11T09:21:10.285Z</time></trkpt><trkpt lat="44.7366784" lon="9.1175433"><ele>1160.0</ele><time>2026-04-11T09:21:11.287Z</time></trkpt><trkpt lat="44.7366029" lon="9.117518"><ele>1160.0</ele><time>2026-04-11T09:21:12.295Z</time></trkpt><trkpt lat="44.7365248" lon="9.1174934"><ele>1161.6666666666667</ele><time>2026-04-11T09:21:13.288Z</time></trkpt><trkpt lat="44.7364554" lon="9.1174707"><ele>1163.3333333333335</ele><time>2026-04-11T09:21:14.284Z</time></trkpt><trkpt lat="44.7363924" lon="9.1174599"><ele>1165.0</ele><time>2026-04-11T09:21:15.289Z</time></trkpt><trkpt lat="44.7362773" lon="9.1175192"><ele>1166.6666666666667</ele><time>2026-04-11T09:21:17.285Z</time></trkpt><trkpt lat="44.7362186" lon="9.1175695"><ele>1168.3333333333333</ele><time>2026-04-11T09:21:18.28Z</time></trkpt><trkpt lat="44.7361522" lon="9.1176236"><ele>1170.0</ele><time>2026-04-11T09:21:19.285Z</time></trkpt><trkpt lat="44.7360831" lon="9.117675"><ele>1171.1666666666667</ele><time>2026-04-11T09:21:20.271Z</time></trkpt><trkpt lat="44.7360155" lon="9.117737"><ele>1172.3333333333333</ele><time>2026-04-11T09:21:21.283Z</time></trkpt><trkpt lat="44.7359485" lon="9.1177958"><ele>1173.5</ele><time>2026-04-11T09:21:22.272Z</time></trkpt><trkpt lat="44.7358815" lon="9.117871"><ele>1174.6666666666665</ele><time>2026-04-11T09:21:23.284Z</time></trkpt><trkpt lat="44.735817" lon="9.1179543"><ele>1175.8333333333333</ele><time>2026-04-11T09:21:24.279Z</time></trkpt><trkpt lat="44.7357586" lon="9.1180415"><ele>1177.0</ele><time>2026-04-11T09:21:25.273Z</time></trkpt><trkpt lat="44.7356924" lon="9.118119"><ele>1177.0</ele><time>2026-04-11T09:21:26.277Z</time></trkpt><trkpt lat="44.7356153" lon="9.1181869"><ele>1177.0</ele><time>2026-04-11T09:21:27.279Z</time></trkpt><trkpt lat="44.7355487" lon="9.1182513"><ele>1177.0</ele><time>2026-04-11T09:21:28.271Z</time></trkpt><trkpt lat="44.7354866" lon="9.1183266"><ele>1177.0</ele><time>2026-04-11T09:21:29.277Z</time></trkpt><trkpt lat="44.735426" lon="9.1184031"><ele>1177.0</ele><time>2026-04-11T09:21:30.278Z</time></trkpt><trkpt lat="44.7353701" lon="9.1184776"><ele>1177.0</ele><time>2026-04-11T09:21:31.277Z</time></trkpt><trkpt lat="44.7353223" lon="9.1185421"><ele>1178.0</ele><time>2026-04-11T09:21:32.271Z</time></trkpt><trkpt lat="44.735246" lon="9.1186366"><ele>1179.0</ele><time>2026-04-11T09:21:34.276Z</time></trkpt><trkpt lat="44.7351531" lon="9.1186974"><ele>1180.0</ele><time>2026-04-11T09:21:59.272Z</time></trkpt><trkpt lat="44.7350366" lon="9.118753"><ele>1181.0</ele><time>2026-04-11T09:22:01.268Z</time></trkpt><trkpt lat="44.7349745" lon="9.1187757"><ele>1182.0</ele><time>2026-04-11T09:22:02.28Z</time></trkpt><trkpt lat="44.7349135" lon="9.1188072"><ele>1184.3333333333333</ele><time>2026-04-11T09:22:03.276Z</time></trkpt><trkpt lat="44.7347968" lon="9.1188793"><ele>1186.6666666666667</ele><time>2026-04-11T09:22:05.274Z</time></trkpt><trkpt lat="44.7346898" lon="9.1189481"><ele>1189.0</ele><time>2026-04-11T09:22:07.275Z</time></trkpt><trkpt lat="44.7346341" lon="9.1189945"><ele>1191.3333333333335</ele><time>2026-04-11T09:22:08.274Z</time></trkpt><trkpt lat="44.7345789" lon="9.1190468"><ele>1193.6666666666667</ele><time>2026-04-11T09:22:09.278Z</time></trkpt><trkpt lat="44.7345202" lon="9.1191078"><ele>1196.0</ele><time>2026-04-11T09:22:10.286Z</time></trkpt><trkpt lat="44.7344498" lon="9.1191584"><ele>1200.3333333333335</ele><time>2026-04-11T09:22:11.273Z</time></trkpt><trkpt lat="44.7343735" lon="9.1191959"><ele>1204.6666666666667</ele><time>2026-04-11T09:22:12.277Z</time></trkpt><trkpt lat="44.7342914" lon="9.1192307"><ele>1209.0</ele><time>2026-04-11T09:22:13.272Z</time></trkpt><trkpt lat="44.73422" lon="9.1192546"><ele>1213.3333333333333</ele><time>2026-04-11T09:22:14.271Z</time></trkpt><trkpt lat="44.7341495" lon="9.1192794"><ele>1217.6666666666665</ele><time>2026-04-11T09:22:15.265Z</time></trkpt><trkpt lat="44.7340855" lon="9.1193113"><ele>1222.0</ele><time>2026-04-11T09:22:16.27Z</time></trkpt><trkpt lat="44.7340083" lon="9.119411"><ele>1222.0</ele><time>2026-04-11T09:22:18.279Z</time></trkpt><trkpt lat="44.7339903" lon="9.1195013"><ele>1222.0</ele><time>2026-04-11T09:22:19.268Z</time></trkpt><trkpt lat="44.7339548" lon="9.1196521"><ele>1222.0</ele><time>2026-04-11T09:22:21.27Z</time></trkpt><trkpt lat="44.7339008" lon="9.1197947"><ele>1222.0</ele><time>2026-04-11T09:22:23.27Z</time></trkpt><trkpt lat="44.7338365" lon="9.119919"><ele>1222.0</ele><time>2026-04-11T09:22:25.266Z</time></trkpt><trkpt lat="44.7337559" lon="9.1200454"><ele>1222.4</ele><time>2026-04-11T09:22:27.269Z</time></trkpt><trkpt lat="44.7336717" lon="9.1200781"><ele>1222.8000000000002</ele><time>2026-04-11T09:22:29.272Z</time></trkpt><trkpt lat="44.7335817" lon="9.1199949"><ele>1223.2</ele><time>2026-04-11T09:22:31.275Z</time></trkpt><trkpt lat="44.7334941" lon="9.1198776"><ele>1223.6000000000001</ele><time>2026-04-11T09:22:33.272Z</time></trkpt><trkpt lat="44.7333997" lon="9.1198235"><ele>1224.0</ele><time>2026-04-11T09:22:35.279Z</time></trkpt><trkpt lat="44.7333162" lon="9.1199088"><ele>1228.3333333333333</ele><time>2026-04-11T09:22:37.268Z</time></trkpt><trkpt lat="44.7333373" lon="9.1200658"><ele>1232.6666666666667</ele><time>2026-04-11T09:22:39.272Z</time></trkpt><trkpt lat="44.7333732" lon="9.1201431"><ele>1237.0</ele><time>2026-04-11T09:22:40.271Z</time></trkpt><trkpt lat="44.7334234" lon="9.1202828"><ele>1241.3333333333335</ele><time>2026-04-11T09:22:42.276Z</time></trkpt><trkpt lat="44.7334147" lon="9.1203833"><ele>1245.6666666666667</ele><time>2026-04-11T09:22:45.287Z</time></trkpt><trkpt lat="44.7333818" lon="9.1204836"><ele>1250.0</ele><time>2026-04-11T09:22:53.273Z</time></trkpt><trkpt lat="44.7333204" lon="9.1205262"><ele>1250.0</ele><time>2026-04-11T09:22:55.277Z</time></trkpt><trkpt lat="44.7332199" lon="9.1205268"><ele>1250.0</ele><time>2026-04-11T09:22:57.275Z</time></trkpt><trkpt lat="44.7331151" lon="9.1204929"><ele>1250.0</ele><time>2026-04-11T09:22:59.271Z</time></trkpt><trkpt lat="44.7330055" lon="9.1204055"><ele>1250.0</ele><time>2026-04-11T09:23:01.269Z</time></trkpt><trkpt lat="44.7329053" lon="9.1203364"><ele>1250.0</ele><time>2026-04-11T09:23:03.268Z</time></trkpt><trkpt lat="44.7327902" lon="9.1202887"><ele>1251.6666666666667</ele><time>2026-04-11T09:23:05.269Z</time></trkpt><trkpt lat="44.7326855" lon="9.1202365"><ele>1253.3333333333335</ele><time>2026-04-11T09:23:07.267Z</time></trkpt><trkpt lat="44.7325894" lon="9.1201552"><ele>1255.0</ele><time>2026-04-11T09:23:09.27Z</time></trkpt><trkpt lat="44.7325418" lon="9.120097"><ele>1256.6666666666667</ele><time>2026-04-11T09:23:10.271Z</time></trkpt><trkpt lat="44.732502" lon="9.1200268"><ele>1258.3333333333333</ele><time>2026-04-11T09:23:11.278Z</time></trkpt><trkpt lat="44.732456" lon="9.1199659"><ele>1260.0</ele><time>2026-04-11T09:23:12.291Z</time></trkpt><trkpt lat="44.7324052" lon="9.1198993"><ele>1260.0</ele><time>2026-04-11T09:23:13.279Z</time></trkpt><trkpt lat="44.7323551" lon="9.1198333"><ele>1260.0</ele><time>2026-04-11T09:23:14.282Z</time></trkpt><trkpt lat="44.7322929" lon="9.1197707"><ele>1260.0</ele><time>2026-04-11T09:23:15.277Z</time></trkpt><trkpt lat="44.732191" lon="9.1197139"><ele>1260.0</ele><time>2026-04-11T09:23:17.279Z</time></trkpt><trkpt lat="44.7320834" lon="9.1197531"><ele>1260.0</ele><time>2026-04-11T09:23:19.275Z</time></trkpt><trkpt lat="44.7320306" lon="9.1198053"><ele>1260.0</ele><time>2026-04-11T09:23:20.277Z</time></trkpt><trkpt lat="44.7319396" lon="9.1199114"><ele>1262.142857142857</ele><time>2026-04-11T09:23:22.279Z</time></trkpt><trkpt lat="44.7318909" lon="9.1199754"><ele>1264.2857142857142</ele><time>2026-04-11T09:23:23.286Z</time></trkpt><trkpt lat="44.7318334" lon="9.1200338"><ele>1266.4285714285716</ele><time>2026-04-11T09:23:24.283Z</time></trkpt><trkpt lat="44.7317758" lon="9.1200994"><ele>1268.5714285714284</ele><time>2026-04-11T09:23:25.284Z</time></trkpt><trkpt lat="44.7317178" lon="9.1201559"><ele>1270.7142857142858</ele><time>2026-04-11T09:23:26.282Z</time></trkpt><trkpt lat="44.7316558" lon="9.1202153"><ele>1272.857142857143</ele><time>2026-04-11T09:23:27.286Z</time></trkpt><trkpt lat="44.731596" lon="9.1202813"><ele>1275.0</ele><time>2026-04-11T09:23:28.283Z</time></trkpt><trkpt lat="44.7315408" lon="9.1203544"><ele>1278.5</ele><time>2026-04-11T09:23:29.286Z</time></trkpt><trkpt lat="44.7314868" lon="9.1204396"><ele>1282.0</ele><time>2026-04-11T09:23:30.286Z</time></trkpt><trkpt lat="44.7314369" lon="9.1205299"><ele>1285.5</ele><time>2026-04-11T09:23:31.289Z</time></trkpt><trkpt lat="44.7313922" lon="9.1206261"><ele>1289.0</ele><time>2026-04-11T09:23:32.282Z</time></trkpt><trkpt lat="44.7313645" lon="9.1207259"><ele>1292.5</ele><time>2026-04-11T09:23:33.28Z</time></trkpt><trkpt lat="44.7313325" lon="9.120827"><ele>1296.0</ele><time>2026-04-11T09:23:34.275Z</time></trkpt><trkpt lat="44.7312897" lon="9.1209174"><ele>1297.6666666666667</ele><time>2026-04-11T09:23:35.286Z</time></trkpt><trkpt lat="44.7312329" lon="9.1209891"><ele>1299.3333333333333</ele><time>2026-04-11T09:23:36.276Z</time></trkpt><trkpt lat="44.7311645" lon="9.1210637"><ele>1301.0</ele><time>2026-04-11T09:23:37.279Z</time></trkpt><trkpt lat="44.7311055" lon="9.1211441"><ele>1302.6666666666665</ele><time>2026-04-11T09:23:38.277Z</time></trkpt><trkpt lat="44.731059" lon="9.1212299"><ele>1304.3333333333333</ele><time>2026-04-11T09:23:39.281Z</time></trkpt><trkpt lat="44.7310246" lon="9.1213231"><ele>1306.0</ele><time>2026-04-11T09:23:40.283Z</time></trkpt><trkpt lat="44.7310285" lon="9.1214869"><ele>1306.6666666666665</ele><time>2026-04-11T09:23:42.28Z</time></trkpt><trkpt lat="44.7310764" lon="9.1216552"><ele>1307.3333333333333</ele><time>2026-04-11T09:23:44.277Z</time></trkpt><trkpt lat="44.7310861" lon="9.1217485"><ele>1308.0</ele><time>2026-04-11T09:23:45.277Z</time></trkpt><trkpt lat="44.7310875" lon="9.1218483"><ele>1308.6666666666667</ele><time>2026-04-11T09:23:46.277Z</time></trkpt><trkpt lat="44.7310905" lon="9.1219545"><ele>1309.3333333333335</ele><time>2026-04-11T09:23:47.287Z</time></trkpt><trkpt lat="44.7310942" lon="9.1220623"><ele>1310.0</ele><time>2026-04-11T09:23:48.28Z</time></trkpt><trkpt lat="44.7310907" lon="9.1221703"><ele>1310.0</ele><time>2026-04-11T09:23:49.284Z</time></trkpt><trkpt lat="44.7310757" lon="9.1222834"><ele>1310.0</ele><time>2026-04-11T09:23:50.28Z</time></trkpt><trkpt lat="44.7310481" lon="9.1223829"><ele>1310.0</ele><time>2026-04-11T09:23:51.287Z</time></trkpt><trkpt lat="44.7310187" lon="9.1224827"><ele>1310.0</ele><time>2026-04-11T09:23:52.285Z</time></trkpt><trkpt lat="44.7309945" lon="9.1225674"><ele>1310.0</ele><time>2026-04-11T09:23:53.281Z</time></trkpt><trkpt lat="44.7310084" lon="9.1227558"><ele>1310.0</ele><time>2026-04-11T09:23:55.28Z</time></trkpt><trkpt lat="44.731042" lon="9.1228559"><ele>1310.5</ele><time>2026-04-11T09:23:56.275Z</time></trkpt><trkpt lat="44.7310793" lon="9.1229574"><ele>1311.0</ele><time>2026-04-11T09:23:57.281Z</time></trkpt><trkpt lat="44.7311206" lon="9.1230504"><ele>1311.5</ele><time>2026-04-11T09:23:58.273Z</time></trkpt><trkpt lat="44.7311609" lon="9.1231604"><ele>1312.0</ele><time>2026-04-11T09:23:59.272Z</time></trkpt><trkpt lat="44.7311872" lon="9.1232726"><ele>1312.5</ele><time>2026-04-11T09:24:00.285Z</time></trkpt><trkpt lat="44.7312059" lon="9.1233721"><ele>1313.0</ele><time>2026-04-11T09:24:01.288Z</time></trkpt><trkpt lat="44.7311929" lon="9.1234734"><ele>1314.4</ele><time>2026-04-11T09:24:03.286Z</time></trkpt><trkpt lat="44.7310842" lon="9.1235031"><ele>1315.8000000000002</ele><time>2026-04-11T09:24:06.277Z</time></trkpt><trkpt lat="44.7309759" lon="9.1234898"><ele>1317.2</ele><time>2026-04-11T09:24:08.278Z</time></trkpt><trkpt lat="44.7308879" lon="9.1235322"><ele>1318.6</ele><time>2026-04-11T09:24:10.274Z</time></trkpt><trkpt lat="44.7308056" lon="9.1236145"><ele>1320.0</ele><time>2026-04-11T09:24:12.279Z</time></trkpt><trkpt lat="44.7307049" lon="9.1237102"><ele>1323.75</ele><time>2026-04-11T09:24:14.289Z</time></trkpt><trkpt lat="44.7305839" lon="9.1237784"><ele>1327.5</ele><time>2026-04-11T09:24:16.284Z</time></trkpt><trkpt lat="44.730479" lon="9.1238484"><ele>1331.25</ele><time>2026-04-11T09:24:18.283Z</time></trkpt><trkpt lat="44.7303687" lon="9.1239197"><ele>1335.0</ele><time>2026-04-11T09:24:20.28Z</time></trkpt><trkpt lat="44.7302491" lon="9.1239488"><ele>1337.142857142857</ele><time>2026-04-11T09:24:22.278Z</time></trkpt><trkpt lat="44.7301826" lon="9.1239389"><ele>1339.2857142857144</ele><time>2026-04-11T09:24:23.275Z</time></trkpt><trkpt lat="44.7301183" lon="9.1239333"><ele>1341.4285714285716</ele><time>2026-04-11T09:24:24.278Z</time></trkpt><trkpt lat="44.7300511" lon="9.1239358"><ele>1343.5714285714284</ele><time>2026-04-11T09:24:25.274Z</time></trkpt><trkpt lat="44.7299851" lon="9.1239455"><ele>1345.7142857142858</ele><time>2026-04-11T09:24:26.281Z</time></trkpt><trkpt lat="44.7299236" lon="9.1239707"><ele>1347.857142857143</ele><time>2026-04-11T09:24:27.272Z</time></trkpt><trkpt lat="44.7298603" lon="9.1240046"><ele>1350.0</ele><time>2026-04-11T09:24:28.278Z</time></trkpt><trkpt lat="44.7297952" lon="9.1240524"><ele>1351.2857142857142</ele><time>2026-04-11T09:24:29.276Z</time></trkpt><trkpt lat="44.7297359" lon="9.1241074"><ele>1352.5714285714287</ele><time>2026-04-11T09:24:30.287Z</time></trkpt><trkpt lat="44.7296769" lon="9.1241632"><ele>1353.857142857143</ele><time>2026-04-11T09:24:31.278Z</time></trkpt><trkpt lat="44.7296204" lon="9.1242183"><ele>1355.142857142857</ele><time>2026-04-11T09:24:32.276Z</time></trkpt><trkpt lat="44.7295627" lon="9.1242773"><ele>1356.4285714285713</ele><time>2026-04-11T09:24:33.28Z</time></trkpt><trkpt lat="44.7295123" lon="9.1243382"><ele>1357.7142857142858</ele><time>2026-04-11T09:24:34.283Z</time></trkpt><trkpt lat="44.7294682" lon="9.124414"><ele>1359.0</ele><time>2026-04-11T09:24:35.278Z</time></trkpt><trkpt lat="44.7294471" lon="9.1245715"><ele>1359.0</ele><time>2026-04-11T09:24:37.284Z</time></trkpt><trkpt lat="44.7294886" lon="9.1247474"><ele>1359.0</ele><time>2026-04-11T09:24:39.288Z</time></trkpt><trkpt lat="44.7295174" lon="9.1248565"><ele>1359.0</ele><time>2026-04-11T09:24:40.274Z</time></trkpt><trkpt lat="44.7295494" lon="9.1249724"><ele>1359.0</ele><time>2026-04-11T09:24:41.28Z</time></trkpt><trkpt lat="44.7295762" lon="9.1250881"><ele>1359.0</ele><time>2026-04-11T09:24:42.271Z</time></trkpt><trkpt lat="44.729604" lon="9.125191"><ele>1359.5714285714287</ele><time>2026-04-11T09:24:43.28Z</time></trkpt><trkpt lat="44.7296303" lon="9.1252873"><ele>1360.142857142857</ele><time>2026-04-11T09:24:44.272Z</time></trkpt><trkpt lat="44.7296597" lon="9.1253887"><ele>1360.7142857142858</ele><time>2026-04-11T09:24:45.294Z</time></trkpt><trkpt lat="44.7296785" lon="9.1254911"><ele>1361.2857142857142</ele><time>2026-04-11T09:24:46.274Z</time></trkpt><trkpt lat="44.7296981" lon="9.1255936"><ele>1361.857142857143</ele><time>2026-04-11T09:24:47.277Z</time></trkpt><trkpt lat="44.7297064" lon="9.1256953"><ele>1362.4285714285713</ele><time>2026-04-11T09:24:48.275Z</time></trkpt><trkpt lat="44.7297015" lon="9.125787"><ele>1363.0</ele><time>2026-04-11T09:24:49.274Z</time></trkpt><trkpt lat="44.729693" lon="9.1258763"><ele>1363.7142857142856</ele><time>2026-04-11T09:24:50.273Z</time></trkpt><trkpt lat="44.7296752" lon="9.1259697"><ele>1364.4285714285716</ele><time>2026-04-11T09:24:51.271Z</time></trkpt><trkpt lat="44.7296505" lon="9.1260579"><ele>1365.142857142857</ele><time>2026-04-11T09:24:52.269Z</time></trkpt><trkpt lat="44.7296245" lon="9.1261626"><ele>1365.8571428571427</ele><time>2026-04-11T09:24:53.274Z</time></trkpt><trkpt lat="44.7296019" lon="9.1262755"><ele>1366.5714285714284</ele><time>2026-04-11T09:24:54.273Z</time></trkpt><trkpt lat="44.7295805" lon="9.1263736"><ele>1367.2857142857142</ele><time>2026-04-11T09:24:55.266Z</time></trkpt><trkpt lat="44.7295582" lon="9.1264609"><ele>1368.0</ele><time>2026-04-11T09:24:56.268Z</time></trkpt><trkpt lat="44.7295286" lon="9.1265935"><ele>1368.0</ele><time>2026-04-11T09:24:58.276Z</time></trkpt><trkpt lat="44.7294972" lon="9.1267307"><ele>1368.0</ele><time>2026-04-11T09:25:00.277Z</time></trkpt><trkpt lat="44.7294358" lon="9.1268595"><ele>1368.0</ele><time>2026-04-11T09:25:02.273Z</time></trkpt><trkpt lat="44.7293426" lon="9.1269773"><ele>1368.0</ele><time>2026-04-11T09:25:04.267Z</time></trkpt><trkpt lat="44.7292768" lon="9.1270398"><ele>1368.0</ele><time>2026-04-11T09:25:05.269Z</time></trkpt><trkpt lat="44.7292061" lon="9.1270965"><ele>1373.3333333333333</ele><time>2026-04-11T09:25:06.266Z</time></trkpt><trkpt lat="44.7291394" lon="9.1271461"><ele>1378.6666666666667</ele><time>2026-04-11T09:25:07.271Z</time></trkpt><trkpt lat="44.729074" lon="9.1271985"><ele>1384.0</ele><time>2026-04-11T09:25:08.268Z</time></trkpt><trkpt lat="44.7290061" lon="9.1272657"><ele>1389.3333333333335</ele><time>2026-04-11T09:25:09.272Z</time></trkpt><trkpt lat="44.7289425" lon="9.127319"><ele>1394.6666666666667</ele><time>2026-04-11T09:25:10.266Z</time></trkpt><trkpt lat="44.7288831" lon="9.1273643"><ele>1400.0</ele><time>2026-04-11T09:25:11.267Z</time></trkpt><trkpt lat="44.7287715" lon="9.1274548"><ele>1400.0</ele><time>2026-04-11T09:25:13.27Z</time></trkpt><trkpt lat="44.7287173" lon="9.1275897"><ele>1400.0</ele><time>2026-04-11T09:25:15.265Z</time></trkpt><trkpt lat="44.7287217" lon="9.1277769"><ele>1400.0</ele><time>2026-04-11T09:25:17.265Z</time></trkpt><trkpt lat="44.7287325" lon="9.127878"><ele>1400.0</ele><time>2026-04-11T09:25:18.271Z</time></trkpt><trkpt lat="44.7287526" lon="9.1279784"><ele>1400.0</ele><time>2026-04-11T09:25:19.272Z</time></trkpt><trkpt lat="44.7287779" lon="9.1280814"><ele>1400.0</ele><time>2026-04-11T09:25:20.263Z</time></trkpt><trkpt lat="44.7288017" lon="9.1281819"><ele>1400.0</ele><time>2026-04-11T09:25:21.266Z</time></trkpt><trkpt lat="44.7287883" lon="9.1282915"><ele>1400.0</ele><time>2026-04-11T09:25:23.267Z</time></trkpt><trkpt lat="44.7287121" lon="9.128293"><ele>1400.0</ele><time>2026-04-11T09:25:25.266Z</time></trkpt><trkpt lat="44.7286165" lon="9.1282232"><ele>1400.0</ele><time>2026-04-11T09:25:27.273Z</time></trkpt><trkpt lat="44.7285408" lon="9.1281622"><ele>1400.0</ele><time>2026-04-11T09:25:29.272Z</time></trkpt><trkpt lat="44.7284952" lon="9.128287"><ele>1401.8333333333335</ele><time>2026-04-11T09:25:32.282Z</time></trkpt><trkpt lat="44.7285444" lon="9.1284626"><ele>1403.6666666666667</ele><time>2026-04-11T09:25:34.273Z</time></trkpt><trkpt lat="44.7285873" lon="9.1285601"><ele>1405.5</ele><time>2026-04-11T09:25:35.272Z</time></trkpt><trkpt lat="44.7286241" lon="9.1286586"><ele>1407.3333333333333</ele><time>2026-04-11T09:25:36.275Z</time></trkpt><trkpt lat="44.7286606" lon="9.1287563"><ele>1409.1666666666665</ele><time>2026-04-11T09:25:37.273Z</time></trkpt><trkpt lat="44.7286883" lon="9.128845"><ele>1411.0</ele><time>2026-04-11T09:25:38.276Z</time></trkpt><trkpt lat="44.728699" lon="9.1289409"><ele>1411.0</ele><time>2026-04-11T09:25:39.278Z</time></trkpt><trkpt lat="44.7287133" lon="9.1290404"><ele>1411.0</ele><time>2026-04-11T09:25:40.276Z</time></trkpt><trkpt lat="44.7287233" lon="9.1291318"><ele>1411.0</ele><time>2026-04-11T09:25:41.276Z</time></trkpt><trkpt lat="44.728728" lon="9.1292644"><ele>1411.0</ele><time>2026-04-11T09:25:43.282Z</time></trkpt><trkpt lat="44.7287125" lon="9.1294057"><ele>1411.0</ele><time>2026-04-11T09:25:45.281Z</time></trkpt><trkpt lat="44.7286906" lon="9.1295527"><ele>1411.0</ele><time>2026-04-11T09:25:47.3Z</time></trkpt><trkpt lat="44.7286755" lon="9.1297191"><ele>1412.8333333333333</ele><time>2026-04-11T09:25:49.29Z</time></trkpt><trkpt lat="44.7286721" lon="9.129812"><ele>1414.6666666666665</ele><time>2026-04-11T09:25:50.288Z</time></trkpt><trkpt lat="44.7286676" lon="9.1299165"><ele>1416.5</ele><time>2026-04-11T09:25:51.286Z</time></trkpt><trkpt lat="44.7286596" lon="9.1300247"><ele>1418.3333333333333</ele><time>2026-04-11T09:25:52.282Z</time></trkpt><trkpt lat="44.7286527" lon="9.1301186"><ele>1420.1666666666667</ele><time>2026-04-11T09:25:53.286Z</time></trkpt><trkpt lat="44.7286443" lon="9.1302536"><ele>1422.0</ele><time>2026-04-11T09:25:55.289Z</time></trkpt><trkpt lat="44.728609" lon="9.1303698"><ele>1426.1999999999998</ele><time>2026-04-11T09:25:57.294Z</time></trkpt><trkpt lat="44.728536" lon="9.1303964"><ele>1430.4</ele><time>2026-04-11T09:25:59.292Z</time></trkpt><trkpt lat="44.7284466" lon="9.1303478"><ele>1434.6</ele><time>2026-04-11T09:26:01.287Z</time></trkpt><trkpt lat="44.728368" lon="9.1302411"><ele>1438.8000000000002</ele><time>2026-04-11T09:26:03.291Z</time></trkpt><trkpt lat="44.7283068" lon="9.130114"><ele>1443.0</ele><time>2026-04-11T09:26:05.29Z</time></trkpt><trkpt lat="44.7282725" lon="9.1300379"><ele>1443.0</ele><time>2026-04-11T09:26:06.299Z</time></trkpt><trkpt lat="44.7282303" lon="9.1299628"><ele>1443.0</ele><time>2026-04-11T09:26:07.294Z</time></trkpt><trkpt lat="44.7281874" lon="9.1298944"><ele>1443.0</ele><time>2026-04-11T09:26:08.297Z</time></trkpt><trkpt lat="44.7281406" lon="9.1298264"><ele>1443.0</ele><time>2026-04-11T09:26:09.295Z</time></trkpt><trkpt lat="44.7280933" lon="9.1297564"><ele>1443.0</ele><time>2026-04-11T09:26:10.293Z</time></trkpt><trkpt lat="44.7280425" lon="9.129684"><ele>1443.0</ele><time>2026-04-11T09:26:11.305Z</time></trkpt><trkpt lat="44.7279966" lon="9.1296216"><ele>1443.0</ele><time>2026-04-11T09:26:12.303Z</time></trkpt><trkpt lat="44.7278984" lon="9.1295079"><ele>1442.5</ele><time>2026-04-11T09:26:14.3Z</time></trkpt><trkpt lat="44.7278441" lon="9.1294583"><ele>1442.0</ele><time>2026-04-11T09:26:15.304Z</time></trkpt><trkpt lat="44.7277817" lon="9.1294062"><ele>1441.5</ele><time>2026-04-11T09:26:16.306Z</time></trkpt><trkpt lat="44.7277103" lon="9.1293503"><ele>1441.0</ele><time>2026-04-11T09:26:17.304Z</time></trkpt><trkpt lat="44.7276384" lon="9.1292944"><ele>1440.5</ele><time>2026-04-11T09:26:18.318Z</time></trkpt><trkpt lat="44.7275686" lon="9.129241"><ele>1440.0</ele><time>2026-04-11T09:26:19.301Z</time></trkpt><trkpt lat="44.7274989" lon="9.1291921"><ele>1442.1666666666667</ele><time>2026-04-11T09:26:20.308Z</time></trkpt><trkpt lat="44.7274282" lon="9.1291392"><ele>1444.3333333333333</ele><time>2026-04-11T09:26:21.321Z</time></trkpt><trkpt lat="44.7273612" lon="9.1290904"><ele>1446.5</ele><time>2026-04-11T09:26:22.319Z</time></trkpt><trkpt lat="44.7272965" lon="9.1290414"><ele>1448.6666666666665</ele><time>2026-04-11T09:26:23.325Z</time></trkpt><trkpt lat="44.727211" lon="9.1289561"><ele>1450.8333333333333</ele><time>2026-04-11T09:26:25.304Z</time></trkpt><trkpt lat="44.7271217" lon="9.1288598"><ele>1453.0</ele><time>2026-04-11T09:26:27.304Z</time></trkpt><trkpt lat="44.7270363" lon="9.128755"><ele>1453.0</ele><time>2026-04-11T09:26:29.305Z</time></trkpt><trkpt lat="44.7269918" lon="9.1286643"><ele>1453.0</ele><time>2026-04-11T09:26:31.312Z</time></trkpt><trkpt lat="44.7269831" lon="9.1285753"><ele>1453.0</ele><time>2026-04-11T09:26:33.305Z</time></trkpt><trkpt lat="44.7270176" lon="9.1284985"><ele>1453.0</ele><time>2026-04-11T09:26:35.293Z</time></trkpt><trkpt lat="44.7270746" lon="9.1284489"><ele>1453.0</ele><time>2026-04-11T09:26:37.289Z</time></trkpt><trkpt lat="44.7271217" lon="9.128552"><ele>1453.0</ele><time>2026-04-11T09:26:46.29Z</time></trkpt></trkseg><trkseg><trkpt lat="44.7270518" lon="9.1285342"><ele>1453.0</ele><time>2026-04-11T09:46:33.31Z</time></trkpt><trkpt lat="44.7270265" lon="9.128628"><ele>1453.0</ele><time>2026-04-11T09:46:36.316Z</time></trkpt><trkpt lat="44.7270454" lon="9.1287721"><ele>1453.0</ele><time>2026-04-11T09:46:39.327Z</time></trkpt><trkpt lat="44.7271065" lon="9.1288435"><ele>1453.0</ele><time>2026-04-11T09:46:41.336Z</time></trkpt><trkpt lat="44.7271856" lon="9.1289275"><ele>1453.0</ele><time>2026-04-11T09:46:43.332Z</time></trkpt><trkpt lat="44.7272608" lon="9.1290046"><ele>1453.0</ele><time>2026-04-11T09:46:45.326Z</time></trkpt><trkpt lat="44.727335" lon="9.1290819"><ele>1453.6000000000001</ele><time>2026-04-11T09:46:47.33Z</time></trkpt><trkpt lat="44.7274092" lon="9.1291484"><ele>1454.2</ele><time>2026-04-11T09:46:49.325Z</time></trkpt><trkpt lat="44.7274965" lon="9.1292218"><ele>1454.8</ele><time>2026-04-11T09:46:51.329Z</time></trkpt><trkpt lat="44.7275937" lon="9.1292947"><ele>1455.4</ele><time>2026-04-11T09:46:53.325Z</time></trkpt><trkpt lat="44.7277016" lon="9.12937"><ele>1456.0</ele><time>2026-04-11T09:46:55.329Z</time></trkpt><trkpt lat="44.7278058" lon="9.1294555"><ele>1453.8333333333333</ele><time>2026-04-11T09:46:57.326Z</time></trkpt><trkpt lat="44.7278597" lon="9.1295018"><ele>1451.6666666666665</ele><time>2026-04-11T09:46:58.327Z</time></trkpt><trkpt lat="44.7279189" lon="9.1295464"><ele>1449.5</ele><time>2026-04-11T09:46:59.325Z</time></trkpt><trkpt lat="44.7279728" lon="9.1295946"><ele>1447.3333333333333</ele><time>2026-04-11T09:47:00.327Z</time></trkpt><trkpt lat="44.7280708" lon="9.1296793"><ele>1445.1666666666667</ele><time>2026-04-11T09:47:02.32Z</time></trkpt><trkpt lat="44.7281544" lon="9.1297857"><ele>1443.0</ele><time>2026-04-11T09:47:04.319Z</time></trkpt><trkpt lat="44.7282358" lon="9.1299045"><ele>1443.0</ele><time>2026-04-11T09:47:06.32Z</time></trkpt><trkpt lat="44.7282846" lon="9.1299704"><ele>1443.0</ele><time>2026-04-11T09:47:07.325Z</time></trkpt><trkpt lat="44.7283308" lon="9.1300423"><ele>1443.0</ele><time>2026-04-11T09:47:08.316Z</time></trkpt><trkpt lat="44.7283746" lon="9.1301198"><ele>1443.0</ele><time>2026-04-11T09:47:09.323Z</time></trkpt><trkpt lat="44.7284167" lon="9.1301933"><ele>1443.0</ele><time>2026-04-11T09:47:10.319Z</time></trkpt><trkpt lat="44.7284896" lon="9.130319"><ele>1443.0</ele><time>2026-04-11T09:47:12.318Z</time></trkpt><trkpt lat="44.7285471" lon="9.1303956"><ele>1440.3333333333333</ele><time>2026-04-11T09:47:14.316Z</time></trkpt><trkpt lat="44.7286118" lon="9.1304011"><ele>1437.6666666666667</ele><time>2026-04-11T09:47:16.324Z</time></trkpt><trkpt lat="44.7286707" lon="9.130282"><ele>1435.0</ele><time>2026-04-11T09:47:18.316Z</time></trkpt><trkpt lat="44.7286897" lon="9.130195"><ele>1432.3333333333335</ele><time>2026-04-11T09:47:19.32Z</time></trkpt><trkpt lat="44.7286937" lon="9.130099"><ele>1429.6666666666667</ele><time>2026-04-11T09:47:20.321Z</time></trkpt><trkpt lat="44.7286892" lon="9.1300027"><ele>1427.0</ele><time>2026-04-11T09:47:21.322Z</time></trkpt><trkpt lat="44.728683" lon="9.1298246"><ele>1426.0</ele><time>2026-04-11T09:47:23.325Z</time></trkpt><trkpt lat="44.7286919" lon="9.1296634"><ele>1425.0</ele><time>2026-04-11T09:47:25.342Z</time></trkpt><trkpt lat="44.728695" lon="9.1295283"><ele>1424.0</ele><time>2026-04-11T09:47:27.317Z</time></trkpt><trkpt lat="44.7287097" lon="9.1293998"><ele>1423.0</ele><time>2026-04-11T09:47:29.328Z</time></trkpt><trkpt lat="44.7287368" lon="9.1292597"><ele>1422.0</ele><time>2026-04-11T09:47:31.327Z</time></trkpt><trkpt lat="44.728736" lon="9.1291025"><ele>1419.8</ele><time>2026-04-11T09:47:33.317Z</time></trkpt><trkpt lat="44.7286978" lon="9.1289543"><ele>1417.6</ele><time>2026-04-11T09:47:35.323Z</time></trkpt><trkpt lat="44.7286743" lon="9.1288177"><ele>1415.3999999999999</ele><time>2026-04-11T09:47:37.315Z</time></trkpt><trkpt lat="44.7286413" lon="9.1286773"><ele>1413.1999999999998</ele><time>2026-04-11T09:47:39.321Z</time></trkpt><trkpt lat="44.7286072" lon="9.1285387"><ele>1411.0</ele><time>2026-04-11T09:47:41.305Z</time></trkpt><trkpt lat="44.7285615" lon="9.1284013"><ele>1411.0</ele><time>2026-04-11T09:47:43.316Z</time></trkpt><trkpt lat="44.728533" lon="9.128298"><ele>1411.0</ele><time>2026-04-11T09:47:45.316Z</time></trkpt><trkpt lat="44.7285606" lon="9.1281946"><ele>1411.0</ele><time>2026-04-11T09:47:48.307Z</time></trkpt><trkpt lat="44.7286368" lon="9.128186"><ele>1411.0</ele><time>2026-04-11T09:47:51.308Z</time></trkpt><trkpt lat="44.7286913" lon="9.1282415"><ele>1411.0</ele><time>2026-04-11T09:47:53.307Z</time></trkpt><trkpt lat="44.7287852" lon="9.1282485"><ele>1411.0</ele><time>2026-04-11T09:47:56.323Z</time></trkpt><trkpt lat="44.7288346" lon="9.1281388"><ele>1408.8</ele><time>2026-04-11T09:47:59.304Z</time></trkpt><trkpt lat="44.7288125" lon="9.1279993"><ele>1406.6</ele><time>2026-04-11T09:48:01.304Z</time></trkpt><trkpt lat="44.7287753" lon="9.1278287"><ele>1404.4</ele><time>2026-04-11T09:48:03.305Z</time></trkpt><trkpt lat="44.7287633" lon="9.1277416"><ele>1402.2</ele><time>2026-04-11T09:48:04.312Z</time></trkpt><trkpt lat="44.7287843" lon="9.1276079"><ele>1400.0</ele><time>2026-04-11T09:48:06.31Z</time></trkpt><trkpt lat="44.7288229" lon="9.1274873"><ele>1400.0</ele><time>2026-04-11T09:48:08.305Z</time></trkpt><trkpt lat="44.7288645" lon="9.1273834"><ele>1400.0</ele><time>2026-04-11T09:48:10.304Z</time></trkpt><trkpt lat="44.7289252" lon="9.1272993"><ele>1400.0</ele><time>2026-04-11T09:48:12.309Z</time></trkpt><trkpt lat="44.7290178" lon="9.1272397"><ele>1400.0</ele><time>2026-04-11T09:48:14.307Z</time></trkpt><trkpt lat="44.7291073" lon="9.1271679"><ele>1400.0</ele><time>2026-04-11T09:48:16.31Z</time></trkpt><trkpt lat="44.7291922" lon="9.1270895"><ele>1400.0</ele><time>2026-04-11T09:48:18.307Z</time></trkpt><trkpt lat="44.7292763" lon="9.1270191"><ele>1400.0</ele><time>2026-04-11T09:48:20.31Z</time></trkpt><trkpt lat="44.7293829" lon="9.1269393"><ele>1400.0</ele><time>2026-04-11T09:48:22.307Z</time></trkpt><trkpt lat="44.7294827" lon="9.1268333"><ele>1400.0</ele><time>2026-04-11T09:48:24.311Z</time></trkpt><trkpt lat="44.7295241" lon="9.1267069"><ele>1400.0</ele><time>2026-04-11T09:48:26.301Z</time></trkpt><trkpt lat="44.7295689" lon="9.1265315"><ele>1394.6666666666667</ele><time>2026-04-11T09:48:28.307Z</time></trkpt><trkpt lat="44.7295789" lon="9.1264128"><ele>1389.3333333333335</ele><time>2026-04-11T09:48:29.306Z</time></trkpt><trkpt lat="44.7295909" lon="9.1263008"><ele>1384.0</ele><time>2026-04-11T09:48:30.309Z</time></trkpt><trkpt lat="44.7296037" lon="9.1261916"><ele>1378.6666666666667</ele><time>2026-04-11T09:48:31.312Z</time></trkpt><trkpt lat="44.7296228" lon="9.1260922"><ele>1373.3333333333333</ele><time>2026-04-11T09:48:32.314Z</time></trkpt><trkpt lat="44.7296373" lon="9.1259993"><ele>1368.0</ele><time>2026-04-11T09:48:33.314Z</time></trkpt><trkpt lat="44.7296541" lon="9.1259099"><ele>1368.0</ele><time>2026-04-11T09:48:34.315Z</time></trkpt><trkpt lat="44.729674" lon="9.1258224"><ele>1368.0</ele><time>2026-04-11T09:48:35.318Z</time></trkpt><trkpt lat="44.7296923" lon="9.1257353"><ele>1368.0</ele><time>2026-04-11T09:48:36.31Z</time></trkpt><trkpt lat="44.7297007" lon="9.1256463"><ele>1368.0</ele><time>2026-04-11T09:48:37.317Z</time></trkpt><trkpt lat="44.7296986" lon="9.1254671"><ele>1368.0</ele><time>2026-04-11T09:48:39.304Z</time></trkpt><trkpt lat="44.7296982" lon="9.1253766"><ele>1368.0</ele><time>2026-04-11T09:48:40.306Z</time></trkpt><trkpt lat="44.7296709" lon="9.125218"><ele>1367.2857142857142</ele><time>2026-04-11T09:48:42.306Z</time></trkpt><trkpt lat="44.7296481" lon="9.1251274"><ele>1366.5714285714284</ele><time>2026-04-11T09:48:43.313Z</time></trkpt><trkpt lat="44.7296207" lon="9.1250399"><ele>1365.8571428571427</ele><time>2026-04-11T09:48:44.307Z</time></trkpt><trkpt lat="44.7295882" lon="9.1249408"><ele>1365.142857142857</ele><time>2026-04-11T09:48:45.312Z</time></trkpt><trkpt lat="44.7295606" lon="9.1248275"><ele>1364.4285714285716</ele><time>2026-04-11T09:48:46.306Z</time></trkpt><trkpt lat="44.7295347" lon="9.1247274"><ele>1363.7142857142856</ele><time>2026-04-11T09:48:47.315Z</time></trkpt><trkpt lat="44.7295069" lon="9.1246347"><ele>1363.0</ele><time>2026-04-11T09:48:48.308Z</time></trkpt><trkpt lat="44.7294867" lon="9.1245485"><ele>1362.2</ele><time>2026-04-11T09:48:49.312Z</time></trkpt><trkpt lat="44.7294921" lon="9.124381"><ele>1361.4</ele><time>2026-04-11T09:48:51.314Z</time></trkpt><trkpt lat="44.7295422" lon="9.1242607"><ele>1360.6000000000001</ele><time>2026-04-11T09:48:53.317Z</time></trkpt><trkpt lat="44.7296169" lon="9.1241956"><ele>1359.8000000000002</ele><time>2026-04-11T09:48:55.318Z</time></trkpt><trkpt lat="44.729717" lon="9.1241204"><ele>1359.0</ele><time>2026-04-11T09:48:57.322Z</time></trkpt><trkpt lat="44.7298274" lon="9.1240425"><ele>1357.2</ele><time>2026-04-11T09:48:59.314Z</time></trkpt><trkpt lat="44.7299344" lon="9.123984"><ele>1355.4</ele><time>2026-04-11T09:49:01.314Z</time></trkpt><trkpt lat="44.7300314" lon="9.1239387"><ele>1353.6</ele><time>2026-04-11T09:49:03.31Z</time></trkpt><trkpt lat="44.7301206" lon="9.1239156"><ele>1351.8</ele><time>2026-04-11T09:49:05.308Z</time></trkpt><trkpt lat="44.7302009" lon="9.1239299"><ele>1350.0</ele><time>2026-04-11T09:49:07.309Z</time></trkpt><trkpt lat="44.7302759" lon="9.1239523"><ele>1347.0</ele><time>2026-04-11T09:49:09.316Z</time></trkpt><trkpt lat="44.7303613" lon="9.1239295"><ele>1344.0</ele><time>2026-04-11T09:49:11.308Z</time></trkpt><trkpt lat="44.7304619" lon="9.1238732"><ele>1341.0</ele><time>2026-04-11T09:49:13.311Z</time></trkpt><trkpt lat="44.7305673" lon="9.123789"><ele>1338.0</ele><time>2026-04-11T09:49:15.308Z</time></trkpt><trkpt lat="44.7306745" lon="9.12371"><ele>1335.0</ele><time>2026-04-11T09:49:17.313Z</time></trkpt><trkpt lat="44.7307854" lon="9.1236401"><ele>1335.0</ele><time>2026-04-11T09:49:19.314Z</time></trkpt><trkpt lat="44.730901" lon="9.1235741"><ele>1335.0</ele><time>2026-04-11T09:49:21.319Z</time></trkpt><trkpt lat="44.730997" lon="9.1235234"><ele>1335.0</ele><time>2026-04-11T09:49:23.318Z</time></trkpt><trkpt lat="44.7311077" lon="9.1235349"><ele>1335.0</ele><time>2026-04-11T09:49:25.313Z</time></trkpt><trkpt lat="44.7311874" lon="9.1235"><ele>1335.0</ele><time>2026-04-11T09:49:27.317Z</time></trkpt><trkpt lat="44.7312053" lon="9.123366"><ele>1334.1666666666667</ele><time>2026-04-11T09:49:29.328Z</time></trkpt><trkpt lat="44.7311964" lon="9.1232646"><ele>1333.3333333333333</ele><time>2026-04-11T09:49:30.311Z</time></trkpt><trkpt lat="44.7311715" lon="9.1231546"><ele>1332.5</ele><time>2026-04-11T09:49:31.311Z</time></trkpt><trkpt lat="44.7311395" lon="9.1230423"><ele>1331.6666666666665</ele><time>2026-04-11T09:49:32.303Z</time></trkpt><trkpt lat="44.7311078" lon="9.1229188"><ele>1330.8333333333333</ele><time>2026-04-11T09:49:33.31Z</time></trkpt><trkpt lat="44.7310701" lon="9.1228"><ele>1330.0</ele><time>2026-04-11T09:49:34.301Z</time></trkpt><trkpt lat="44.7310348" lon="9.1226958"><ele>1330.0</ele><time>2026-04-11T09:49:35.309Z</time></trkpt><trkpt lat="44.7310062" lon="9.1226077"><ele>1330.0</ele><time>2026-04-11T09:49:36.306Z</time></trkpt><trkpt lat="44.7309958" lon="9.1224573"><ele>1330.0</ele><time>2026-04-11T09:49:38.306Z</time></trkpt><trkpt lat="44.7310302" lon="9.122302"><ele>1330.0</ele><time>2026-04-11T09:49:40.313Z</time></trkpt><trkpt lat="44.7310603" lon="9.1221301"><ele>1330.0</ele><time>2026-04-11T09:49:42.316Z</time></trkpt><trkpt lat="44.7310738" lon="9.1220402"><ele>1327.142857142857</ele><time>2026-04-11T09:49:43.321Z</time></trkpt><trkpt lat="44.7310775" lon="9.1219435"><ele>1324.2857142857142</ele><time>2026-04-11T09:49:44.316Z</time></trkpt><trkpt lat="44.7310816" lon="9.1218464"><ele>1321.4285714285716</ele><time>2026-04-11T09:49:45.324Z</time></trkpt><trkpt lat="44.7310843" lon="9.1217469"><ele>1318.5714285714284</ele><time>2026-04-11T09:49:46.317Z</time></trkpt><trkpt lat="44.7310872" lon="9.121649"><ele>1315.7142857142858</ele><time>2026-04-11T09:49:47.317Z</time></trkpt><trkpt lat="44.7310907" lon="9.121553"><ele>1312.857142857143</ele><time>2026-04-11T09:49:48.317Z</time></trkpt><trkpt lat="44.731082" lon="9.121462"><ele>1310.0</ele><time>2026-04-11T09:49:49.325Z</time></trkpt><trkpt lat="44.7310544" lon="9.1213023"><ele>1309.3333333333335</ele><time>2026-04-11T09:49:51.316Z</time></trkpt><trkpt lat="44.7310808" lon="9.1211422"><ele>1308.6666666666667</ele><time>2026-04-11T09:49:53.316Z</time></trkpt><trkpt lat="44.7311196" lon="9.1210633"><ele>1308.0</ele><time>2026-04-11T09:49:54.311Z</time></trkpt><trkpt lat="44.7311699" lon="9.1209992"><ele>1307.3333333333333</ele><time>2026-04-11T09:49:55.318Z</time></trkpt><trkpt lat="44.7312266" lon="9.1209454"><ele>1306.6666666666665</ele><time>2026-04-11T09:49:56.312Z</time></trkpt><trkpt lat="44.7312854" lon="9.1208819"><ele>1306.0</ele><time>2026-04-11T09:49:57.323Z</time></trkpt><trkpt lat="44.7313429" lon="9.1208229"><ele>1306.0000000000002</ele><time>2026-04-11T09:49:58.316Z</time></trkpt><trkpt lat="44.7313936" lon="9.1207578"><ele>1306.0</ele><time>2026-04-11T09:49:59.319Z</time></trkpt><trkpt lat="44.7314294" lon="9.1206697"><ele>1306.0</ele><time>2026-04-11T09:50:00.328Z</time></trkpt><trkpt lat="44.7314627" lon="9.1205685"><ele>1306.0</ele><time>2026-04-11T09:50:01.319Z</time></trkpt><trkpt lat="44.7314967" lon="9.1204758"><ele>1306.0</ele><time>2026-04-11T09:50:02.316Z</time></trkpt><trkpt lat="44.7315307" lon="9.120387"><ele>1306.0000000000002</ele><time>2026-04-11T09:50:03.307Z</time></trkpt><trkpt lat="44.7315709" lon="9.1203081"><ele>1306.0</ele><time>2026-04-11T09:50:04.316Z</time></trkpt><trkpt lat="44.7316205" lon="9.1202334"><ele>1304.3333333333333</ele><time>2026-04-11T09:50:05.314Z</time></trkpt><trkpt lat="44.7316739" lon="9.1201776"><ele>1302.6666666666665</ele><time>2026-04-11T09:50:06.317Z</time></trkpt><trkpt lat="44.7317796" lon="9.1200804"><ele>1301.0</ele><time>2026-04-11T09:50:08.322Z</time></trkpt><trkpt lat="44.7318337" lon="9.1200307"><ele>1299.3333333333333</ele><time>2026-04-11T09:50:09.315Z</time></trkpt><trkpt lat="44.7318889" lon="9.1199837"><ele>1297.6666666666667</ele><time>2026-04-11T09:50:10.317Z</time></trkpt><trkpt lat="44.7319396" lon="9.1199228"><ele>1296.0</ele><time>2026-04-11T09:50:11.314Z</time></trkpt><trkpt lat="44.73203" lon="9.1198129"><ele>1291.8</ele><time>2026-04-11T09:50:13.319Z</time></trkpt><trkpt lat="44.732123" lon="9.1197398"><ele>1287.6</ele><time>2026-04-11T09:50:15.315Z</time></trkpt><trkpt lat="44.7322236" lon="9.1197076"><ele>1283.4</ele><time>2026-04-11T09:50:17.317Z</time></trkpt><trkpt lat="44.7323134" lon="9.1197543"><ele>1279.2</ele><time>2026-04-11T09:50:19.316Z</time></trkpt><trkpt lat="44.7324018" lon="9.1198627"><ele>1275.0</ele><time>2026-04-11T09:50:21.308Z</time></trkpt><trkpt lat="44.7324778" lon="9.1199919"><ele>1275.0</ele><time>2026-04-11T09:50:23.312Z</time></trkpt><trkpt lat="44.7325426" lon="9.120129"><ele>1275.0</ele><time>2026-04-11T09:50:25.313Z</time></trkpt><trkpt lat="44.7326162" lon="9.1202339"><ele>1275.0</ele><time>2026-04-11T09:50:27.313Z</time></trkpt><trkpt lat="44.7327084" lon="9.1203084"><ele>1275.0</ele><time>2026-04-11T09:50:29.314Z</time></trkpt><trkpt lat="44.7327985" lon="9.1203636"><ele>1275.0</ele><time>2026-04-11T09:50:31.333Z</time></trkpt><trkpt lat="44.7329159" lon="9.1204255"><ele>1270.8333333333333</ele><time>2026-04-11T09:50:33.311Z</time></trkpt><trkpt lat="44.7329854" lon="9.1204671"><ele>1266.6666666666667</ele><time>2026-04-11T09:50:34.31Z</time></trkpt><trkpt lat="44.7330451" lon="9.1205168"><ele>1262.5</ele><time>2026-04-11T09:50:35.316Z</time></trkpt><trkpt lat="44.7331035" lon="9.1205631"><ele>1258.3333333333335</ele><time>2026-04-11T09:50:36.31Z</time></trkpt><trkpt lat="44.7331633" lon="9.1205959"><ele>1254.1666666666667</ele><time>2026-04-11T09:50:37.318Z</time></trkpt><trkpt lat="44.7332783" lon="9.120592"><ele>1250.0</ele><time>2026-04-11T09:50:39.317Z</time></trkpt><trkpt lat="44.7333397" lon="9.1205603"><ele>1250.0</ele><time>2026-04-11T09:50:40.311Z</time></trkpt><trkpt lat="44.7333937" lon="9.1205069"><ele>1250.0</ele><time>2026-04-11T09:50:41.329Z</time></trkpt><trkpt lat="44.7334265" lon="9.1204307"><ele>1250.0</ele><time>2026-04-11T09:50:42.311Z</time></trkpt><trkpt lat="44.7334451" lon="9.1202641"><ele>1250.0</ele><time>2026-04-11T09:50:44.314Z</time></trkpt><trkpt lat="44.7334223" lon="9.1201125"><ele>1250.0</ele><time>2026-04-11T09:50:46.315Z</time></trkpt><trkpt lat="44.7333733" lon="9.1199779"><ele>1248.0</ele><time>2026-04-11T09:50:48.318Z</time></trkpt><trkpt lat="44.7333686" lon="9.1198692"><ele>1246.0</ele><time>2026-04-11T09:50:50.312Z</time></trkpt><trkpt lat="44.7334272" lon="9.1198302"><ele>1244.0</ele><time>2026-04-11T09:50:52.303Z</time></trkpt><trkpt lat="44.7335002" lon="9.119885"><ele>1242.0</ele><time>2026-04-11T09:50:54.305Z</time></trkpt><trkpt lat="44.7335826" lon="9.1200099"><ele>1240.0</ele><time>2026-04-11T09:50:56.307Z</time></trkpt><trkpt lat="44.7336822" lon="9.1200898"><ele>1236.8</ele><time>2026-04-11T09:50:58.309Z</time></trkpt><trkpt lat="44.7337826" lon="9.1200664"><ele>1233.6</ele><time>2026-04-11T09:51:00.321Z</time></trkpt><trkpt lat="44.7338543" lon="9.1199507"><ele>1230.4</ele><time>2026-04-11T09:51:02.331Z</time></trkpt><trkpt lat="44.7338876" lon="9.1198695"><ele>1227.2</ele><time>2026-04-11T09:51:03.309Z</time></trkpt><trkpt lat="44.7339298" lon="9.1197879"><ele>1224.0</ele><time>2026-04-11T09:51:04.31Z</time></trkpt><trkpt lat="44.7340029" lon="9.1196406"><ele>1223.6000000000001</ele><time>2026-04-11T09:51:06.31Z</time></trkpt><trkpt lat="44.7340525" lon="9.1195035"><ele>1223.2</ele><time>2026-04-11T09:51:08.307Z</time></trkpt><trkpt lat="44.7340962" lon="9.1193758"><ele>1222.8000000000002</ele><time>2026-04-11T09:51:10.308Z</time></trkpt><trkpt lat="44.7341651" lon="9.1192777"><ele>1222.4</ele><time>2026-04-11T09:51:12.307Z</time></trkpt><trkpt lat="44.7342474" lon="9.119228"><ele>1222.0</ele><time>2026-04-11T09:51:14.312Z</time></trkpt><trkpt lat="44.7343761" lon="9.1191928"><ele>1217.6666666666665</ele><time>2026-04-11T09:51:16.314Z</time></trkpt><trkpt lat="44.7344973" lon="9.1191294"><ele>1213.3333333333333</ele><time>2026-04-11T09:51:18.312Z</time></trkpt><trkpt lat="44.7345543" lon="9.1190856"><ele>1209.0</ele><time>2026-04-11T09:51:19.312Z</time></trkpt><trkpt lat="44.7346105" lon="9.1190429"><ele>1204.6666666666667</ele><time>2026-04-11T09:51:20.313Z</time></trkpt><trkpt lat="44.7346686" lon="9.1190019"><ele>1200.3333333333335</ele><time>2026-04-11T09:51:21.314Z</time></trkpt><trkpt lat="44.7347278" lon="9.118963"><ele>1196.0</ele><time>2026-04-11T09:51:22.317Z</time></trkpt><trkpt lat="44.7347902" lon="9.1189293"><ele>1196.0</ele><time>2026-04-11T09:51:23.313Z</time></trkpt><trkpt lat="44.7348543" lon="9.1188973"><ele>1196.0</ele><time>2026-04-11T09:51:24.318Z</time></trkpt><trkpt lat="44.7349138" lon="9.118861"><ele>1196.0</ele><time>2026-04-11T09:51:25.316Z</time></trkpt><trkpt lat="44.7350149" lon="9.1187898"><ele>1196.0</ele><time>2026-04-11T09:51:27.313Z</time></trkpt><trkpt lat="44.7351147" lon="9.1187442"><ele>1196.0</ele><time>2026-04-11T09:51:29.314Z</time></trkpt><trkpt lat="44.7351866" lon="9.1187125"><ele>1196.0</ele><time>2026-04-11T09:51:31.313Z</time></trkpt><trkpt lat="44.7352589" lon="9.1187332"><ele>1196.0</ele><time>2026-04-11T09:51:36.311Z</time></trkpt><trkpt lat="44.7352219" lon="9.1188107"><ele>1196.0</ele><time>2026-04-11T09:52:29.319Z</time></trkpt><trkpt lat="44.7351464" lon="9.1189026"><ele>1196.0</ele><time>2026-04-11T09:52:31.32Z</time></trkpt><trkpt lat="44.7350575" lon="9.1190112"><ele>1196.0</ele><time>2026-04-11T09:52:33.316Z</time></trkpt><trkpt lat="44.7349476" lon="9.1190977"><ele>1196.0</ele><time>2026-04-11T09:52:35.323Z</time></trkpt><trkpt lat="44.7348896" lon="9.1191359"><ele>1196.0</ele><time>2026-04-11T09:52:36.317Z</time></trkpt><trkpt lat="44.7347893" lon="9.1192009"><ele>1196.0</ele><time>2026-04-11T09:52:38.299Z</time></trkpt><trkpt lat="44.7347076" lon="9.1192798"><ele>1196.0</ele><time>2026-04-11T09:52:40.304Z</time></trkpt><trkpt lat="44.7346187" lon="9.1193968"><ele>1196.0</ele><time>2026-04-11T09:52:42.309Z</time></trkpt><trkpt lat="44.7345629" lon="9.119455"><ele>1196.0</ele><time>2026-04-11T09:52:43.299Z</time></trkpt><trkpt lat="44.7345078" lon="9.1195158"><ele>1196.0</ele><time>2026-04-11T09:52:44.312Z</time></trkpt><trkpt lat="44.734454" lon="9.1195684"><ele>1196.0</ele><time>2026-04-11T09:52:45.309Z</time></trkpt><trkpt lat="44.7343608" lon="9.1196549"><ele>1196.0</ele><time>2026-04-11T09:52:47.308Z</time></trkpt><trkpt lat="44.734275" lon="9.1197826"><ele>1196.0</ele><time>2026-04-11T09:52:49.309Z</time></trkpt><trkpt lat="44.7342393" lon="9.1198781"><ele>1196.0</ele><time>2026-04-11T09:52:50.317Z</time></trkpt><trkpt lat="44.7341974" lon="9.119979"><ele>1200.6666666666667</ele><time>2026-04-11T09:52:51.308Z</time></trkpt><trkpt lat="44.7341641" lon="9.1200782"><ele>1205.3333333333335</ele><time>2026-04-11T09:52:52.306Z</time></trkpt><trkpt lat="44.7341509" lon="9.1202314"><ele>1210.0</ele><time>2026-04-11T09:52:54.308Z</time></trkpt><trkpt lat="44.7341555" lon="9.1203221"><ele>1214.6666666666667</ele><time>2026-04-11T09:52:55.3Z</time></trkpt><trkpt lat="44.7341935" lon="9.1204929"><ele>1219.3333333333333</ele><time>2026-04-11T09:52:57.301Z</time></trkpt><trkpt lat="44.7342137" lon="9.1205792"><ele>1224.0</ele><time>2026-04-11T09:52:58.305Z</time></trkpt><trkpt lat="44.7342609" lon="9.1207377"><ele>1224.6000000000001</ele><time>2026-04-11T09:53:00.301Z</time></trkpt><trkpt lat="44.7342608" lon="9.1209107"><ele>1225.2</ele><time>2026-04-11T09:53:02.299Z</time></trkpt><trkpt lat="44.7342412" lon="9.1209956"><ele>1225.8000000000002</ele><time>2026-04-11T09:53:03.309Z</time></trkpt><trkpt lat="44.7342044" lon="9.1211613"><ele>1226.4</ele><time>2026-04-11T09:53:05.304Z</time></trkpt><trkpt lat="44.7341574" lon="9.1213303"><ele>1227.0</ele><time>2026-04-11T09:53:07.309Z</time></trkpt><trkpt lat="44.7341204" lon="9.1214186"><ele>1227.0</ele><time>2026-04-11T09:53:08.304Z</time></trkpt><trkpt lat="44.7340686" lon="9.1215405"><ele>1227.0</ele><time>2026-04-11T09:53:10.31Z</time></trkpt><trkpt lat="44.7339959" lon="9.121666"><ele>1227.0</ele><time>2026-04-11T09:53:12.316Z</time></trkpt><trkpt lat="44.7339629" lon="9.1217636"><ele>1227.0</ele><time>2026-04-11T09:53:13.304Z</time></trkpt><trkpt lat="44.7339425" lon="9.1218648"><ele>1227.0</ele><time>2026-04-11T09:53:14.314Z</time></trkpt><trkpt lat="44.7339295" lon="9.1219719"><ele>1227.0</ele><time>2026-04-11T09:53:15.308Z</time></trkpt><trkpt lat="44.7339229" lon="9.1220986"><ele>1227.6666666666667</ele><time>2026-04-11T09:53:16.315Z</time></trkpt><trkpt lat="44.7339124" lon="9.1222153"><ele>1228.3333333333333</ele><time>2026-04-11T09:53:17.308Z</time></trkpt><trkpt lat="44.733895" lon="9.1223236"><ele>1229.0</ele><time>2026-04-11T09:53:18.312Z</time></trkpt><trkpt lat="44.7338701" lon="9.1224167"><ele>1229.6666666666665</ele><time>2026-04-11T09:53:19.306Z</time></trkpt><trkpt lat="44.7338421" lon="9.1225067"><ele>1230.3333333333333</ele><time>2026-04-11T09:53:20.315Z</time></trkpt><trkpt lat="44.7338038" lon="9.122638"><ele>1231.0</ele><time>2026-04-11T09:53:22.312Z</time></trkpt><trkpt lat="44.7337881" lon="9.1227902"><ele>1231.142857142857</ele><time>2026-04-11T09:53:24.309Z</time></trkpt><trkpt lat="44.7337737" lon="9.1228908"><ele>1231.2857142857142</ele><time>2026-04-11T09:53:25.31Z</time></trkpt><trkpt lat="44.7337513" lon="9.1229974"><ele>1231.4285714285716</ele><time>2026-04-11T09:53:26.301Z</time></trkpt><trkpt lat="44.7337371" lon="9.1230978"><ele>1231.5714285714284</ele><time>2026-04-11T09:53:27.303Z</time></trkpt><trkpt lat="44.7337357" lon="9.1231921"><ele>1231.7142857142858</ele><time>2026-04-11T09:53:28.311Z</time></trkpt><trkpt lat="44.7337495" lon="9.1232827"><ele>1231.857142857143</ele><time>2026-04-11T09:53:29.309Z</time></trkpt><trkpt lat="44.7337712" lon="9.1233752"><ele>1232.0</ele><time>2026-04-11T09:53:30.304Z</time></trkpt><trkpt lat="44.7338001" lon="9.1234688"><ele>1231.4285714285713</ele><time>2026-04-11T09:53:31.308Z</time></trkpt><trkpt lat="44.7338198" lon="9.1235573"><ele>1230.857142857143</ele><time>2026-04-11T09:53:32.301Z</time></trkpt><trkpt lat="44.7338395" lon="9.1236599"><ele>1230.2857142857142</ele><time>2026-04-11T09:53:33.308Z</time></trkpt><trkpt lat="44.7338569" lon="9.1237646"><ele>1229.7142857142858</ele><time>2026-04-11T09:53:34.304Z</time></trkpt><trkpt lat="44.7338707" lon="9.1238649"><ele>1229.142857142857</ele><time>2026-04-11T09:53:35.308Z</time></trkpt><trkpt lat="44.7338848" lon="9.1239542"><ele>1228.5714285714284</ele><time>2026-04-11T09:53:36.312Z</time></trkpt><trkpt lat="44.7338973" lon="9.1240521"><ele>1228.0</ele><time>2026-04-11T09:53:38.313Z</time></trkpt><trkpt lat="44.7338858" lon="9.1241704"><ele>1227.4</ele><time>2026-04-11T09:54:08.323Z</time></trkpt><trkpt lat="44.7338636" lon="9.1242938"><ele>1226.8</ele><time>2026-04-11T09:54:10.301Z</time></trkpt><trkpt lat="44.7338379" lon="9.1244548"><ele>1226.2</ele><time>2026-04-11T09:54:12.304Z</time></trkpt><trkpt lat="44.7338293" lon="9.1245594"><ele>1225.6</ele><time>2026-04-11T09:54:13.311Z</time></trkpt><trkpt lat="44.7338218" lon="9.1247262"><ele>1225.0</ele><time>2026-04-11T09:54:15.313Z</time></trkpt><trkpt lat="44.7338239" lon="9.1248793"><ele>1225.0</ele><time>2026-04-11T09:54:17.303Z</time></trkpt><trkpt lat="44.7338354" lon="9.1250229"><ele>1225.0</ele><time>2026-04-11T09:54:19.309Z</time></trkpt><trkpt lat="44.7338921" lon="9.1251692"><ele>1225.0</ele><time>2026-04-11T09:54:21.308Z</time></trkpt><trkpt lat="44.7339681" lon="9.1253113"><ele>1225.0</ele><time>2026-04-11T09:54:23.301Z</time></trkpt><trkpt lat="44.7340367" lon="9.1254393"><ele>1225.0</ele><time>2026-04-11T09:54:25.31Z</time></trkpt><trkpt lat="44.7340547" lon="9.1255937"><ele>1225.0</ele><time>2026-04-11T09:54:27.305Z</time></trkpt><trkpt lat="44.734056" lon="9.1257491"><ele>1225.0</ele><time>2026-04-11T09:54:29.318Z</time></trkpt><trkpt lat="44.7340231" lon="9.1258393"><ele>1225.0</ele><time>2026-04-11T09:54:31.312Z</time></trkpt><trkpt lat="44.7339778" lon="9.125925"><ele>1225.0</ele><time>2026-04-11T09:54:33.308Z</time></trkpt><trkpt lat="44.7339086" lon="9.1259993"><ele>1223.0</ele><time>2026-04-11T09:54:35.308Z</time></trkpt><trkpt lat="44.7337975" lon="9.1260788"><ele>1221.0</ele><time>2026-04-11T09:54:37.3Z</time></trkpt><trkpt lat="44.7336901" lon="9.1261429"><ele>1219.0</ele><time>2026-04-11T09:54:39.314Z</time></trkpt><trkpt lat="44.7335821" lon="9.1261905"><ele>1217.0</ele><time>2026-04-11T09:54:41.297Z</time></trkpt><trkpt lat="44.73347" lon="9.1262523"><ele>1222.2</ele><time>2026-04-11T09:54:43.3Z</time></trkpt><trkpt lat="44.7333684" lon="9.1263302"><ele>1227.4</ele><time>2026-04-11T09:54:45.309Z</time></trkpt><trkpt lat="44.7333139" lon="9.1263962"><ele>1232.6</ele><time>2026-04-11T09:54:47.309Z</time></trkpt><trkpt lat="44.7333539" lon="9.1264844"><ele>1237.8</ele><time>2026-04-11T09:54:50.307Z</time></trkpt><trkpt lat="44.7334766" lon="9.1265343"><ele>1243.0</ele><time>2026-04-11T09:54:52.305Z</time></trkpt><trkpt lat="44.7335462" lon="9.1265595"><ele>1238.4</ele><time>2026-04-11T09:54:53.307Z</time></trkpt><trkpt lat="44.7336107" lon="9.1265886"><ele>1233.8</ele><time>2026-04-11T09:54:54.311Z</time></trkpt><trkpt lat="44.7337045" lon="9.1266811"><ele>1229.2</ele><time>2026-04-11T09:54:56.314Z</time></trkpt><trkpt lat="44.7337455" lon="9.1267491"><ele>1224.6</ele><time>2026-04-11T09:54:57.302Z</time></trkpt><trkpt lat="44.7338066" lon="9.1268753"><ele>1220.0</ele><time>2026-04-11T09:54:59.308Z</time></trkpt><trkpt lat="44.7338537" lon="9.1270259"><ele>1220.0</ele><time>2026-04-11T09:55:01.302Z</time></trkpt><trkpt lat="44.7338919" lon="9.1271731"><ele>1220.0</ele><time>2026-04-11T09:55:03.297Z</time></trkpt><trkpt lat="44.7339456" lon="9.1272978"><ele>1220.0</ele><time>2026-04-11T09:55:05.304Z</time></trkpt><trkpt lat="44.7340424" lon="9.1273947"><ele>1220.0</ele><time>2026-04-11T09:55:07.305Z</time></trkpt><trkpt lat="44.7341076" lon="9.1274329"><ele>1220.0</ele><time>2026-04-11T09:55:08.305Z</time></trkpt><trkpt lat="44.7341719" lon="9.1274704"><ele>1218.4</ele><time>2026-04-11T09:55:09.305Z</time></trkpt><trkpt lat="44.7342576" lon="9.1275671"><ele>1216.8</ele><time>2026-04-11T09:55:11.301Z</time></trkpt><trkpt lat="44.7343456" lon="9.1277085"><ele>1215.2</ele><time>2026-04-11T09:55:13.316Z</time></trkpt><trkpt lat="44.7343924" lon="9.1277929"><ele>1213.6</ele><time>2026-04-11T09:55:14.315Z</time></trkpt><trkpt lat="44.7344356" lon="9.1278828"><ele>1212.0</ele><time>2026-04-11T09:55:15.313Z</time></trkpt><trkpt lat="44.734478" lon="9.1279563"><ele>1212.0</ele><time>2026-04-11T09:55:16.312Z</time></trkpt><trkpt lat="44.7345471" lon="9.1280844"><ele>1212.0</ele><time>2026-04-11T09:55:18.315Z</time></trkpt><trkpt lat="44.7345674" lon="9.1282111"><ele>1212.0</ele><time>2026-04-11T09:55:20.315Z</time></trkpt><trkpt lat="44.7345363" lon="9.1283351"><ele>1212.0</ele><time>2026-04-11T09:55:22.312Z</time></trkpt><trkpt lat="44.7345063" lon="9.1284133"><ele>1212.0</ele><time>2026-04-11T09:55:24.313Z</time></trkpt><trkpt lat="44.7344713" lon="9.1284932"><ele>1212.0</ele><time>2026-04-11T09:55:26.315Z</time></trkpt><trkpt lat="44.7344479" lon="9.1286099"><ele>1214.3333333333333</ele><time>2026-04-11T09:55:28.316Z</time></trkpt><trkpt lat="44.7344257" lon="9.1286939"><ele>1216.6666666666667</ele><time>2026-04-11T09:55:30.32Z</time></trkpt><trkpt lat="44.7343588" lon="9.128735"><ele>1219.0</ele><time>2026-04-11T09:55:33.316Z</time></trkpt><trkpt lat="44.734286" lon="9.1286759"><ele>1221.3333333333335</ele><time>2026-04-11T09:55:36.319Z</time></trkpt><trkpt lat="44.7342325" lon="9.128588"><ele>1223.6666666666667</ele><time>2026-04-11T09:55:38.316Z</time></trkpt><trkpt lat="44.7341653" lon="9.128506"><ele>1226.0</ele><time>2026-04-11T09:55:40.315Z</time></trkpt><trkpt lat="44.7340936" lon="9.1284519"><ele>1230.3333333333335</ele><time>2026-04-11T09:55:42.316Z</time></trkpt><trkpt lat="44.7340341" lon="9.1284184"><ele>1234.6666666666667</ele><time>2026-04-11T09:55:44.326Z</time></trkpt><trkpt lat="44.7339594" lon="9.128493"><ele>1239.0</ele><time>2026-04-11T09:55:47.323Z</time></trkpt><trkpt lat="44.7339272" lon="9.1286058"><ele>1243.3333333333333</ele><time>2026-04-11T09:55:49.319Z</time></trkpt><trkpt lat="44.7339272" lon="9.1287303"><ele>1247.6666666666665</ele><time>2026-04-11T09:55:51.313Z</time></trkpt><trkpt lat="44.733951" lon="9.1288777"><ele>1252.0</ele><time>2026-04-11T09:55:53.312Z</time></trkpt><trkpt lat="44.7339617" lon="9.1290185"><ele>1253.6</ele><time>2026-04-11T09:55:55.311Z</time></trkpt><trkpt lat="44.7339464" lon="9.1291418"><ele>1255.2</ele><time>2026-04-11T09:55:57.308Z</time></trkpt><trkpt lat="44.7339374" lon="9.1292548"><ele>1256.8</ele><time>2026-04-11T09:55:59.314Z</time></trkpt><trkpt lat="44.733953" lon="9.1293913"><ele>1258.4</ele><time>2026-04-11T09:56:01.309Z</time></trkpt><trkpt lat="44.7339849" lon="9.1295419"><ele>1260.0</ele><time>2026-04-11T09:56:03.307Z</time></trkpt><trkpt lat="44.7340045" lon="9.1296965"><ele>1260.0</ele><time>2026-04-11T09:56:05.309Z</time></trkpt><trkpt lat="44.7340409" lon="9.1298569"><ele>1260.0</ele><time>2026-04-11T09:56:07.312Z</time></trkpt><trkpt lat="44.7340688" lon="9.1299444"><ele>1260.0</ele><time>2026-04-11T09:56:08.314Z</time></trkpt><trkpt lat="44.7341401" lon="9.1300724"><ele>1260.0</ele><time>2026-04-11T09:56:10.318Z</time></trkpt><trkpt lat="44.734225" lon="9.1301662"><ele>1260.0</ele><time>2026-04-11T09:56:12.345Z</time></trkpt><trkpt lat="44.734316" lon="9.1302713"><ele>1258.2</ele><time>2026-04-11T09:56:14.31Z</time></trkpt><trkpt lat="44.7344018" lon="9.1303725"><ele>1256.4</ele><time>2026-04-11T09:56:16.323Z</time></trkpt><trkpt lat="44.7344518" lon="9.1305094"><ele>1254.6</ele><time>2026-04-11T09:56:18.32Z</time></trkpt><trkpt lat="44.7344612" lon="9.1306686"><ele>1252.8</ele><time>2026-04-11T09:56:20.32Z</time></trkpt><trkpt lat="44.7344631" lon="9.1307922"><ele>1251.0</ele><time>2026-04-11T09:56:22.323Z</time></trkpt><trkpt lat="44.73447" lon="9.1308903"><ele>1251.0</ele><time>2026-04-11T09:56:25.317Z</time></trkpt><trkpt lat="44.7345029" lon="9.1309783"><ele>1251.0</ele><time>2026-04-11T09:56:31.311Z</time></trkpt><trkpt lat="44.7345374" lon="9.1310859"><ele>1251.0</ele><time>2026-04-11T09:56:34.314Z</time></trkpt><trkpt lat="44.7345507" lon="9.1311852"><ele>1251.0</ele><time>2026-04-11T09:56:37.321Z</time></trkpt><trkpt lat="44.7345747" lon="9.1313081"><ele>1251.0</ele><time>2026-04-11T09:56:40.318Z</time></trkpt><trkpt lat="44.7346032" lon="9.1314007"><ele>1251.0</ele><time>2026-04-11T09:56:42.333Z</time></trkpt><trkpt lat="44.734628" lon="9.131508"><ele>1251.8333333333333</ele><time>2026-04-11T09:56:44.318Z</time></trkpt><trkpt lat="44.7346442" lon="9.131622"><ele>1252.6666666666667</ele><time>2026-04-11T09:56:46.327Z</time></trkpt><trkpt lat="44.7346415" lon="9.1317388"><ele>1253.5</ele><time>2026-04-11T09:56:48.319Z</time></trkpt><trkpt lat="44.7346301" lon="9.1318403"><ele>1254.3333333333335</ele><time>2026-04-11T09:56:50.324Z</time></trkpt><trkpt lat="44.7346257" lon="9.1319652"><ele>1255.1666666666667</ele><time>2026-04-11T09:56:52.325Z</time></trkpt><trkpt lat="44.7346223" lon="9.132094"><ele>1256.0</ele><time>2026-04-11T09:56:54.317Z</time></trkpt><trkpt lat="44.7346466" lon="9.1322348"><ele>1256.0</ele><time>2026-04-11T09:56:56.315Z</time></trkpt><trkpt lat="44.7346772" lon="9.1323722"><ele>1256.0</ele><time>2026-04-11T09:56:58.316Z</time></trkpt><trkpt lat="44.7347086" lon="9.1325164"><ele>1256.0</ele><time>2026-04-11T09:57:00.312Z</time></trkpt><trkpt lat="44.7347291" lon="9.1326125"><ele>1256.0</ele><time>2026-04-11T09:57:01.31Z</time></trkpt><trkpt lat="44.7347526" lon="9.1327094"><ele>1256.0</ele><time>2026-04-11T09:57:02.321Z</time></trkpt><trkpt lat="44.7347822" lon="9.1327995"><ele>1256.0</ele><time>2026-04-11T09:57:03.303Z</time></trkpt><trkpt lat="44.7348163" lon="9.1328836"><ele>1258.0</ele><time>2026-04-11T09:57:04.309Z</time></trkpt><trkpt lat="44.7348942" lon="9.1329805"><ele>1260.0</ele><time>2026-04-11T09:57:06.302Z</time></trkpt><trkpt lat="44.7350119" lon="9.1330521"><ele>1262.0</ele><time>2026-04-11T09:57:08.301Z</time></trkpt><trkpt lat="44.7350661" lon="9.1331106"><ele>1264.0</ele><time>2026-04-11T09:57:09.31Z</time></trkpt><trkpt lat="44.7351777" lon="9.1331922"><ele>1266.0</ele><time>2026-04-11T09:57:11.309Z</time></trkpt><trkpt lat="44.7352439" lon="9.1332051"><ele>1265.0</ele><time>2026-04-11T09:57:12.303Z</time></trkpt><trkpt lat="44.7353107" lon="9.1331937"><ele>1264.0</ele><time>2026-04-11T09:57:13.322Z</time></trkpt><trkpt lat="44.7354296" lon="9.1331763"><ele>1263.0</ele><time>2026-04-11T09:57:15.302Z</time></trkpt><trkpt lat="44.735543" lon="9.1332262"><ele>1262.0</ele><time>2026-04-11T09:57:17.309Z</time></trkpt><trkpt lat="44.7356414" lon="9.1333396"><ele>1261.0</ele><time>2026-04-11T09:57:19.307Z</time></trkpt><trkpt lat="44.7357161" lon="9.1334715"><ele>1261.0</ele><time>2026-04-11T09:57:21.317Z</time></trkpt><trkpt lat="44.7357851" lon="9.1336061"><ele>1261.0</ele><time>2026-04-11T09:57:23.319Z</time></trkpt><trkpt lat="44.7358483" lon="9.1337499"><ele>1261.0</ele><time>2026-04-11T09:57:25.314Z</time></trkpt><trkpt lat="44.7359221" lon="9.1338708"><ele>1261.0</ele><time>2026-04-11T09:57:27.317Z</time></trkpt><trkpt lat="44.7359946" lon="9.1339791"><ele>1260.2</ele><time>2026-04-11T09:57:29.317Z</time></trkpt><trkpt lat="44.736067" lon="9.1340611"><ele>1259.3999999999999</ele><time>2026-04-11T09:57:31.316Z</time></trkpt><trkpt lat="44.7361372" lon="9.1341239"><ele>1258.6</ele><time>2026-04-11T09:57:33.311Z</time></trkpt><trkpt lat="44.7361984" lon="9.1341892"><ele>1257.8</ele><time>2026-04-11T09:57:35.31Z</time></trkpt><trkpt lat="44.7362695" lon="9.134272"><ele>1257.0</ele><time>2026-04-11T09:57:37.314Z</time></trkpt><trkpt lat="44.7363456" lon="9.1343746"><ele>1257.0</ele><time>2026-04-11T09:57:39.314Z</time></trkpt><trkpt lat="44.7364286" lon="9.1344473"><ele>1257.0</ele><time>2026-04-11T09:57:41.314Z</time></trkpt><trkpt lat="44.7365196" lon="9.13456"><ele>1257.0</ele><time>2026-04-11T09:57:43.32Z</time></trkpt><trkpt lat="44.7366288" lon="9.1346347"><ele>1257.0</ele><time>2026-04-11T09:57:45.313Z</time></trkpt><trkpt lat="44.7366924" lon="9.1346656"><ele>1257.0</ele><time>2026-04-11T09:57:46.316Z</time></trkpt><trkpt lat="44.7368134" lon="9.1346701"><ele>1255.4</ele><time>2026-04-11T09:57:48.322Z</time></trkpt><trkpt lat="44.7369238" lon="9.1346652"><ele>1253.8000000000002</ele><time>2026-04-11T09:57:50.321Z</time></trkpt><trkpt lat="44.7370178" lon="9.1346414"><ele>1252.2</ele><time>2026-04-11T09:57:52.314Z</time></trkpt><trkpt lat="44.7371209" lon="9.1346011"><ele>1250.6000000000001</ele><time>2026-04-11T09:57:54.315Z</time></trkpt><trkpt lat="44.7372395" lon="9.1345484"><ele>1249.0</ele><time>2026-04-11T09:57:56.308Z</time></trkpt><trkpt lat="44.7373011" lon="9.1345208"><ele>1249.0</ele><time>2026-04-11T09:57:57.309Z</time></trkpt><trkpt lat="44.7373631" lon="9.1344935"><ele>1249.0</ele><time>2026-04-11T09:57:58.314Z</time></trkpt><trkpt lat="44.7374763" lon="9.1344799"><ele>1249.0</ele><time>2026-04-11T09:58:00.315Z</time></trkpt><trkpt lat="44.7375585" lon="9.134522"><ele>1249.0</ele><time>2026-04-11T09:58:02.319Z</time></trkpt><trkpt lat="44.7376223" lon="9.1345966"><ele>1249.0</ele><time>2026-04-11T09:58:04.309Z</time></trkpt><trkpt lat="44.7376673" lon="9.1346968"><ele>1249.0</ele><time>2026-04-11T09:58:06.317Z</time></trkpt><trkpt lat="44.7376852" lon="9.1348062"><ele>1247.6666666666665</ele><time>2026-04-11T09:58:08.32Z</time></trkpt><trkpt lat="44.7377077" lon="9.1349183"><ele>1246.3333333333333</ele><time>2026-04-11T09:58:10.325Z</time></trkpt><trkpt lat="44.7377272" lon="9.1350158"><ele>1245.0</ele><time>2026-04-11T09:58:12.321Z</time></trkpt><trkpt lat="44.7377456" lon="9.1351182"><ele>1243.6666666666667</ele><time>2026-04-11T09:58:14.323Z</time></trkpt><trkpt lat="44.7377865" lon="9.1352401"><ele>1242.3333333333335</ele><time>2026-04-11T09:58:16.33Z</time></trkpt><trkpt lat="44.7378208" lon="9.1353644"><ele>1241.0</ele><time>2026-04-11T09:58:18.32Z</time></trkpt><trkpt lat="44.7378651" lon="9.1354545"><ele>1241.0</ele><time>2026-04-11T09:58:20.318Z</time></trkpt><trkpt lat="44.7379146" lon="9.1355666"><ele>1241.0</ele><time>2026-04-11T09:58:22.326Z</time></trkpt><trkpt lat="44.7379652" lon="9.1357008"><ele>1241.0</ele><time>2026-04-11T09:58:24.322Z</time></trkpt><trkpt lat="44.7379938" lon="9.1357803"><ele>1241.0</ele><time>2026-04-11T09:58:25.325Z</time></trkpt><trkpt lat="44.7380241" lon="9.1358693"><ele>1241.0</ele><time>2026-04-11T09:58:26.324Z</time></trkpt><trkpt lat="44.7380571" lon="9.1359484"><ele>1241.0</ele><time>2026-04-11T09:58:27.319Z</time></trkpt><trkpt lat="44.7381175" lon="9.1360991"><ele>1243.0</ele><time>2026-04-11T09:58:29.32Z</time></trkpt><trkpt lat="44.7381553" lon="9.1361735"><ele>1245.0</ele><time>2026-04-11T09:58:30.318Z</time></trkpt><trkpt lat="44.7382288" lon="9.1363113"><ele>1247.0</ele><time>2026-04-11T09:58:32.324Z</time></trkpt><trkpt lat="44.7382685" lon="9.1363899"><ele>1249.0</ele><time>2026-04-11T09:58:33.329Z</time></trkpt><trkpt lat="44.7383139" lon="9.1364689"><ele>1251.0</ele><time>2026-04-11T09:58:34.323Z</time></trkpt><trkpt lat="44.7383594" lon="9.1365523"><ele>1253.0</ele><time>2026-04-11T09:58:35.323Z</time></trkpt><trkpt lat="44.7384112" lon="9.1366248"><ele>1254.8</ele><time>2026-04-11T09:58:36.32Z</time></trkpt><trkpt lat="44.7384961" lon="9.1367442"><ele>1256.6</ele><time>2026-04-11T09:58:38.325Z</time></trkpt><trkpt lat="44.7385721" lon="9.1368448"><ele>1258.4</ele><time>2026-04-11T09:58:40.326Z</time></trkpt><trkpt lat="44.7386352" lon="9.1369476"><ele>1260.2</ele><time>2026-04-11T09:58:42.329Z</time></trkpt><trkpt lat="44.7387046" lon="9.1370788"><ele>1262.0</ele><time>2026-04-11T09:58:44.319Z</time></trkpt><trkpt lat="44.7387521" lon="9.1371528"><ele>1259.1666666666667</ele><time>2026-04-11T09:58:45.32Z</time></trkpt><trkpt lat="44.7387992" lon="9.137219"><ele>1256.3333333333335</ele><time>2026-04-11T09:58:46.344Z</time></trkpt><trkpt lat="44.7388924" lon="9.1373143"><ele>1253.5</ele><time>2026-04-11T09:58:48.325Z</time></trkpt><trkpt lat="44.7389846" lon="9.137376"><ele>1250.6666666666667</ele><time>2026-04-11T09:58:50.338Z</time></trkpt><trkpt lat="44.7390566" lon="9.1374295"><ele>1247.8333333333333</ele><time>2026-04-11T09:58:52.331Z</time></trkpt><trkpt lat="44.7391277" lon="9.1374783"><ele>1245.0</ele><time>2026-04-11T09:58:55.332Z</time></trkpt><trkpt lat="44.7391862" lon="9.1375846"><ele>1245.0</ele><time>2026-04-11T09:58:58.327Z</time></trkpt><trkpt lat="44.7392256" lon="9.1376625"><ele>1245.0</ele><time>2026-04-11T09:59:00.336Z</time></trkpt><trkpt lat="44.7392802" lon="9.1377695"><ele>1245.0</ele><time>2026-04-11T09:59:03.325Z</time></trkpt><trkpt lat="44.7393573" lon="9.1378327"><ele>1245.0</ele><time>2026-04-11T09:59:06.341Z</time></trkpt><trkpt lat="44.7394308" lon="9.1378508"><ele>1245.0</ele><time>2026-04-11T09:59:09.333Z</time></trkpt><trkpt lat="44.7394999" lon="9.1378757"><ele>1245.0</ele><time>2026-04-11T09:59:13.333Z</time></trkpt><trkpt lat="44.7395353" lon="9.1379757"><ele>1244.0</ele><time>2026-04-11T09:59:17.34Z</time></trkpt><trkpt lat="44.7395035" lon="9.138063"><ele>1243.0</ele><time>2026-04-11T09:59:19.336Z</time></trkpt><trkpt lat="44.7394668" lon="9.1381457"><ele>1242.0</ele><time>2026-04-11T09:59:21.33Z</time></trkpt><trkpt lat="44.7394117" lon="9.1382387"><ele>1241.0</ele><time>2026-04-11T09:59:23.333Z</time></trkpt><trkpt lat="44.7393535" lon="9.138337"><ele>1240.0</ele><time>2026-04-11T09:59:25.33Z</time></trkpt><trkpt lat="44.7392936" lon="9.1384277"><ele>1239.0</ele><time>2026-04-11T09:59:27.335Z</time></trkpt><trkpt lat="44.7392248" lon="9.1385076"><ele>1239.0</ele><time>2026-04-11T09:59:29.334Z</time></trkpt><trkpt lat="44.7391617" lon="9.1385718"><ele>1239.0</ele><time>2026-04-11T09:59:31.325Z</time></trkpt><trkpt lat="44.7391024" lon="9.1386074"><ele>1239.0</ele><time>2026-04-11T09:59:33.328Z</time></trkpt><trkpt lat="44.7390298" lon="9.1386405"><ele>1239.0</ele><time>2026-04-11T09:59:35.33Z</time></trkpt><trkpt lat="44.73896" lon="9.1386967"><ele>1239.0</ele><time>2026-04-11T09:59:37.323Z</time></trkpt><trkpt lat="44.7388884" lon="9.1387429"><ele>1239.0</ele><time>2026-04-11T09:59:39.327Z</time></trkpt><trkpt lat="44.7387789" lon="9.1387847"><ele>1239.0</ele><time>2026-04-11T09:59:41.328Z</time></trkpt><trkpt lat="44.7387113" lon="9.1387988"><ele>1239.0</ele><time>2026-04-11T09:59:42.335Z</time></trkpt><trkpt lat="44.7386363" lon="9.1388167"><ele>1239.0</ele><time>2026-04-11T09:59:43.337Z</time></trkpt><trkpt lat="44.7385717" lon="9.1388282"><ele>1239.0</ele><time>2026-04-11T09:59:44.309Z</time></trkpt><trkpt lat="44.7384647" lon="9.1388557"><ele>1239.0</ele><time>2026-04-11T09:59:46.314Z</time></trkpt><trkpt lat="44.7383706" lon="9.1388754"><ele>1239.0</ele><time>2026-04-11T09:59:48.338Z</time></trkpt><trkpt lat="44.7382497" lon="9.1388842"><ele>1241.4</ele><time>2026-04-11T09:59:50.326Z</time></trkpt><trkpt lat="44.7381574" lon="9.1388779"><ele>1243.8000000000002</ele><time>2026-04-11T09:59:52.323Z</time></trkpt><trkpt lat="44.7380527" lon="9.1388409"><ele>1246.1999999999998</ele><time>2026-04-11T09:59:54.335Z</time></trkpt><trkpt lat="44.7379315" lon="9.1388057"><ele>1248.6</ele><time>2026-04-11T09:59:56.317Z</time></trkpt><trkpt lat="44.7378321" lon="9.1387773"><ele>1251.0</ele><time>2026-04-11T09:59:58.322Z</time></trkpt><trkpt lat="44.7377323" lon="9.1387677"><ele>1249.6</ele><time>2026-04-11T10:00:00.322Z</time></trkpt><trkpt lat="44.7376279" lon="9.1387588"><ele>1248.1999999999998</ele><time>2026-04-11T10:00:02.317Z</time></trkpt><trkpt lat="44.7375288" lon="9.1387472"><ele>1246.8000000000002</ele><time>2026-04-11T10:00:04.317Z</time></trkpt><trkpt lat="44.7374318" lon="9.1387248"><ele>1245.4</ele><time>2026-04-11T10:00:06.316Z</time></trkpt><trkpt lat="44.7373285" lon="9.1386941"><ele>1244.0</ele><time>2026-04-11T10:00:08.306Z</time></trkpt><trkpt lat="44.7372313" lon="9.1387"><ele>1244.0</ele><time>2026-04-11T10:00:10.316Z</time></trkpt><trkpt lat="44.7371017" lon="9.1386878"><ele>1244.0</ele><time>2026-04-11T10:00:12.318Z</time></trkpt><trkpt lat="44.7370357" lon="9.1386831"><ele>1244.0</ele><time>2026-04-11T10:00:13.308Z</time></trkpt><trkpt lat="44.7369143" lon="9.1386946"><ele>1244.0</ele><time>2026-04-11T10:00:15.31Z</time></trkpt><trkpt lat="44.736805" lon="9.1387284"><ele>1244.0</ele><time>2026-04-11T10:00:17.312Z</time></trkpt><trkpt lat="44.7367164" lon="9.1387973"><ele>1244.6000000000001</ele><time>2026-04-11T10:00:19.331Z</time></trkpt><trkpt lat="44.7366556" lon="9.1389397"><ele>1245.2</ele><time>2026-04-11T10:00:21.325Z</time></trkpt><trkpt lat="44.736621" lon="9.1390148"><ele>1245.8000000000002</ele><time>2026-04-11T10:00:22.308Z</time></trkpt><trkpt lat="44.7365374" lon="9.1391028"><ele>1246.4</ele><time>2026-04-11T10:00:24.317Z</time></trkpt><trkpt lat="44.7364238" lon="9.1391459"><ele>1247.0</ele><time>2026-04-11T10:00:26.315Z</time></trkpt><trkpt lat="44.7363603" lon="9.1391758"><ele>1243.1666666666667</ele><time>2026-04-11T10:00:27.324Z</time></trkpt><trkpt lat="44.7362936" lon="9.1392095"><ele>1239.3333333333335</ele><time>2026-04-11T10:00:28.316Z</time></trkpt><trkpt lat="44.7361942" lon="9.1392702"><ele>1235.5</ele><time>2026-04-11T10:00:30.32Z</time></trkpt><trkpt lat="44.7361151" lon="9.1392942"><ele>1231.6666666666667</ele><time>2026-04-11T10:00:32.316Z</time></trkpt><trkpt lat="44.736022" lon="9.1392706"><ele>1227.8333333333333</ele><time>2026-04-11T10:00:34.32Z</time></trkpt><trkpt lat="44.735941" lon="9.1392083"><ele>1224.0</ele><time>2026-04-11T10:00:36.323Z</time></trkpt><trkpt lat="44.7358745" lon="9.1391294"><ele>1224.0</ele><time>2026-04-11T10:00:38.313Z</time></trkpt><trkpt lat="44.7358112" lon="9.1390975"><ele>1224.0</ele><time>2026-04-11T10:00:40.312Z</time></trkpt><trkpt lat="44.7357336" lon="9.1391077"><ele>1224.0</ele><time>2026-04-11T10:00:42.318Z</time></trkpt><trkpt lat="44.7356392" lon="9.1391649"><ele>1224.0</ele><time>2026-04-11T10:00:44.314Z</time></trkpt><trkpt lat="44.7355408" lon="9.1392082"><ele>1224.0</ele><time>2026-04-11T10:00:46.315Z</time></trkpt><trkpt lat="44.7354459" lon="9.1392663"><ele>1224.0</ele><time>2026-04-11T10:00:48.308Z</time></trkpt><trkpt lat="44.7353538" lon="9.1393807"><ele>1224.0</ele><time>2026-04-11T10:00:50.334Z</time></trkpt><trkpt lat="44.7353146" lon="9.1394623"><ele>1224.0</ele><time>2026-04-11T10:00:51.308Z</time></trkpt><trkpt lat="44.7352771" lon="9.1395493"><ele>1224.0</ele><time>2026-04-11T10:00:52.309Z</time></trkpt><trkpt lat="44.7352446" lon="9.1396422"><ele>1224.0</ele><time>2026-04-11T10:00:53.31Z</time></trkpt><trkpt lat="44.7352206" lon="9.139734"><ele>1224.0</ele><time>2026-04-11T10:00:54.303Z</time></trkpt><trkpt lat="44.7351979" lon="9.1398303"><ele>1222.0</ele><time>2026-04-11T10:00:55.307Z</time></trkpt><trkpt lat="44.7351809" lon="9.1399272"><ele>1220.0</ele><time>2026-04-11T10:00:56.317Z</time></trkpt><trkpt lat="44.7351635" lon="9.1400294"><ele>1218.0</ele><time>2026-04-11T10:00:57.313Z</time></trkpt><trkpt lat="44.7351478" lon="9.14012"><ele>1216.0</ele><time>2026-04-11T10:00:58.321Z</time></trkpt><trkpt lat="44.735126" lon="9.1402921"><ele>1214.0</ele><time>2026-04-11T10:01:00.317Z</time></trkpt><trkpt lat="44.7350885" lon="9.1404658"><ele>1214.0</ele><time>2026-04-11T10:01:02.324Z</time></trkpt><trkpt lat="44.7350405" lon="9.1406173"><ele>1214.0</ele><time>2026-04-11T10:01:04.318Z</time></trkpt><trkpt lat="44.7349786" lon="9.1407191"><ele>1214.0</ele><time>2026-04-11T10:01:06.319Z</time></trkpt><trkpt lat="44.7349" lon="9.1407984"><ele>1214.0</ele><time>2026-04-11T10:01:08.307Z</time></trkpt><trkpt lat="44.7348146" lon="9.1408555"><ele>1214.0</ele><time>2026-04-11T10:01:10.32Z</time></trkpt><trkpt lat="44.7347095" lon="9.1408707"><ele>1208.4</ele><time>2026-04-11T10:01:12.315Z</time></trkpt><trkpt lat="44.734614" lon="9.1408311"><ele>1202.8000000000002</ele><time>2026-04-11T10:01:14.313Z</time></trkpt><trkpt lat="44.7345035" lon="9.1407922"><ele>1197.1999999999998</ele><time>2026-04-11T10:01:16.314Z</time></trkpt><trkpt lat="44.7344001" lon="9.1407763"><ele>1191.6</ele><time>2026-04-11T10:01:18.318Z</time></trkpt><trkpt lat="44.7342965" lon="9.140761"><ele>1186.0</ele><time>2026-04-11T10:01:20.329Z</time></trkpt><trkpt lat="44.7341957" lon="9.1407165"><ele>1191.0</ele><time>2026-04-11T10:01:22.32Z</time></trkpt><trkpt lat="44.73409" lon="9.1406448"><ele>1196.0</ele><time>2026-04-11T10:01:24.308Z</time></trkpt><trkpt lat="44.7340415" lon="9.140585"><ele>1201.0</ele><time>2026-04-11T10:01:25.311Z</time></trkpt><trkpt lat="44.7339555" lon="9.1404949"><ele>1206.0</ele><time>2026-04-11T10:01:27.311Z</time></trkpt><trkpt lat="44.7338795" lon="9.140438"><ele>1211.0</ele><time>2026-04-11T10:01:29.3Z</time></trkpt><trkpt lat="44.7337905" lon="9.1403982"><ele>1211.0</ele><time>2026-04-11T10:01:31.3Z</time></trkpt><trkpt lat="44.7336869" lon="9.1403915"><ele>1211.0</ele><time>2026-04-11T10:01:33.297Z</time></trkpt><trkpt lat="44.7335792" lon="9.140366"><ele>1211.0</ele><time>2026-04-11T10:01:35.309Z</time></trkpt><trkpt lat="44.7334625" lon="9.1403194"><ele>1211.0</ele><time>2026-04-11T10:01:37.315Z</time></trkpt><trkpt lat="44.7333598" lon="9.1402552"><ele>1211.0</ele><time>2026-04-11T10:01:39.306Z</time></trkpt><trkpt lat="44.7332594" lon="9.1402004"><ele>1206.3333333333335</ele><time>2026-04-11T10:01:41.308Z</time></trkpt><trkpt lat="44.7331851" lon="9.1401482"><ele>1201.6666666666667</ele><time>2026-04-11T10:01:43.317Z</time></trkpt><trkpt lat="44.7331219" lon="9.1401939"><ele>1197.0</ele><time>2026-04-11T10:01:45.31Z</time></trkpt><trkpt lat="44.7331039" lon="9.1402866"><ele>1192.3333333333333</ele><time>2026-04-11T10:01:47.312Z</time></trkpt><trkpt lat="44.7331025" lon="9.1404093"><ele>1187.6666666666665</ele><time>2026-04-11T10:01:49.323Z</time></trkpt><trkpt lat="44.7331136" lon="9.1405406"><ele>1183.0</ele><time>2026-04-11T10:01:51.333Z</time></trkpt><trkpt lat="44.7331471" lon="9.1406748"><ele>1179.8333333333333</ele><time>2026-04-11T10:01:53.324Z</time></trkpt><trkpt lat="44.7331868" lon="9.1408001"><ele>1176.6666666666665</ele><time>2026-04-11T10:01:55.319Z</time></trkpt><trkpt lat="44.7332181" lon="9.1408913"><ele>1173.5</ele><time>2026-04-11T10:01:57.323Z</time></trkpt><trkpt lat="44.7332546" lon="9.1409851"><ele>1170.3333333333333</ele><time>2026-04-11T10:01:59.317Z</time></trkpt><trkpt lat="44.7332768" lon="9.141106"><ele>1167.1666666666667</ele><time>2026-04-11T10:02:01.323Z</time></trkpt><trkpt lat="44.7332803" lon="9.1412229"><ele>1164.0</ele><time>2026-04-11T10:02:03.314Z</time></trkpt><trkpt lat="44.7332836" lon="9.1413472"><ele>1164.0</ele><time>2026-04-11T10:02:05.317Z</time></trkpt><trkpt lat="44.7332886" lon="9.1414651"><ele>1164.0</ele><time>2026-04-11T10:02:07.322Z</time></trkpt><trkpt lat="44.7332965" lon="9.141621"><ele>1164.0</ele><time>2026-04-11T10:02:09.32Z</time></trkpt><trkpt lat="44.7332895" lon="9.1417775"><ele>1164.0</ele><time>2026-04-11T10:02:11.321Z</time></trkpt><trkpt lat="44.7332809" lon="9.1419461"><ele>1164.0</ele><time>2026-04-11T10:02:13.319Z</time></trkpt><trkpt lat="44.7332579" lon="9.1421094"><ele>1161.0</ele><time>2026-04-11T10:02:15.32Z</time></trkpt><trkpt lat="44.733228" lon="9.142252"><ele>1158.0</ele><time>2026-04-11T10:02:17.321Z</time></trkpt><trkpt lat="44.7331922" lon="9.1423738"><ele>1155.0</ele><time>2026-04-11T10:02:19.332Z</time></trkpt><trkpt lat="44.7331606" lon="9.142489"><ele>1152.0</ele><time>2026-04-11T10:02:21.322Z</time></trkpt><trkpt lat="44.7330988" lon="9.1425846"><ele>1149.0</ele><time>2026-04-11T10:02:23.32Z</time></trkpt><trkpt lat="44.7330217" lon="9.142684"><ele>1147.4</ele><time>2026-04-11T10:02:25.319Z</time></trkpt><trkpt lat="44.7329516" lon="9.1427839"><ele>1145.8000000000002</ele><time>2026-04-11T10:02:27.32Z</time></trkpt><trkpt lat="44.732904" lon="9.1428862"><ele>1144.1999999999998</ele><time>2026-04-11T10:02:29.324Z</time></trkpt><trkpt lat="44.7328619" lon="9.1429908"><ele>1142.6</ele><time>2026-04-11T10:02:31.314Z</time></trkpt><trkpt lat="44.7328184" lon="9.1431182"><ele>1141.0</ele><time>2026-04-11T10:02:33.324Z</time></trkpt><trkpt lat="44.7327582" lon="9.1432423"><ele>1139.0</ele><time>2026-04-11T10:02:35.324Z</time></trkpt><trkpt lat="44.7327036" lon="9.1433571"><ele>1137.0</ele><time>2026-04-11T10:02:37.316Z</time></trkpt><trkpt lat="44.7326417" lon="9.1434689"><ele>1135.0</ele><time>2026-04-11T10:02:39.319Z</time></trkpt><trkpt lat="44.7325684" lon="9.1436061"><ele>1133.0</ele><time>2026-04-11T10:02:41.323Z</time></trkpt><trkpt lat="44.7324962" lon="9.1437279"><ele>1131.0</ele><time>2026-04-11T10:02:43.316Z</time></trkpt><trkpt lat="44.7324487" lon="9.1438144"><ele>1131.0</ele><time>2026-04-11T10:02:45.324Z</time></trkpt><trkpt lat="44.7323962" lon="9.1438923"><ele>1131.0</ele><time>2026-04-11T10:02:47.326Z</time></trkpt><trkpt lat="44.7323261" lon="9.1439671"><ele>1131.0</ele><time>2026-04-11T10:02:49.318Z</time></trkpt><trkpt lat="44.7322397" lon="9.1440205"><ele>1131.0</ele><time>2026-04-11T10:02:51.313Z</time></trkpt><trkpt lat="44.7321593" lon="9.144074"><ele>1131.0</ele><time>2026-04-11T10:02:53.334Z</time></trkpt><trkpt lat="44.732066" lon="9.1441024"><ele>1131.0</ele><time>2026-04-11T10:02:55.321Z</time></trkpt><trkpt lat="44.7319651" lon="9.1440816"><ele>1130.8</ele><time>2026-04-11T10:02:57.324Z</time></trkpt><trkpt lat="44.7318474" lon="9.1440301"><ele>1130.6</ele><time>2026-04-11T10:02:59.328Z</time></trkpt><trkpt lat="44.7317846" lon="9.1439992"><ele>1130.4</ele><time>2026-04-11T10:03:00.325Z</time></trkpt><trkpt lat="44.7317214" lon="9.1439808"><ele>1130.2</ele><time>2026-04-11T10:03:01.329Z</time></trkpt><trkpt lat="44.731602" lon="9.1439411"><ele>1130.0</ele><time>2026-04-11T10:03:03.325Z</time></trkpt><trkpt lat="44.73148" lon="9.1439193"><ele>1130.0</ele><time>2026-04-11T10:03:05.319Z</time></trkpt><trkpt lat="44.7313731" lon="9.1439587"><ele>1130.0</ele><time>2026-04-11T10:03:07.329Z</time></trkpt><trkpt lat="44.7312691" lon="9.1440753"><ele>1130.0</ele><time>2026-04-11T10:03:09.326Z</time></trkpt><trkpt lat="44.7312064" lon="9.1441358"><ele>1130.0</ele><time>2026-04-11T10:03:10.315Z</time></trkpt><trkpt lat="44.731134" lon="9.1441847"><ele>1130.0</ele><time>2026-04-11T10:03:11.318Z</time></trkpt><trkpt lat="44.7310671" lon="9.1442184"><ele>1128.3333333333335</ele><time>2026-04-11T10:03:12.321Z</time></trkpt><trkpt lat="44.7310036" lon="9.1442371"><ele>1126.6666666666667</ele><time>2026-04-11T10:03:13.327Z</time></trkpt><trkpt lat="44.7309373" lon="9.1442348"><ele>1125.0</ele><time>2026-04-11T10:03:14.324Z</time></trkpt><trkpt lat="44.7308749" lon="9.1442162"><ele>1123.3333333333333</ele><time>2026-04-11T10:03:15.325Z</time></trkpt><trkpt lat="44.7308131" lon="9.1441905"><ele>1121.6666666666665</ele><time>2026-04-11T10:03:16.327Z</time></trkpt><trkpt lat="44.7307042" lon="9.1441259"><ele>1120.0</ele><time>2026-04-11T10:03:18.33Z</time></trkpt><trkpt lat="44.7306301" lon="9.1440285"><ele>1120.0</ele><time>2026-04-11T10:03:20.325Z</time></trkpt><trkpt lat="44.7305772" lon="9.1439164"><ele>1120.0</ele><time>2026-04-11T10:03:22.32Z</time></trkpt><trkpt lat="44.7305217" lon="9.1437957"><ele>1120.0</ele><time>2026-04-11T10:03:24.335Z</time></trkpt><trkpt lat="44.7304831" lon="9.1436815"><ele>1120.0</ele><time>2026-04-11T10:03:26.329Z</time></trkpt><trkpt lat="44.7304039" lon="9.1436976"><ele>1120.0</ele><time>2026-04-11T10:03:29.322Z</time></trkpt><trkpt lat="44.7303448" lon="9.1437834"><ele>1120.0</ele><time>2026-04-11T10:03:31.319Z</time></trkpt><trkpt lat="44.7303107" lon="9.1438819"><ele>1120.0</ele><time>2026-04-11T10:03:33.321Z</time></trkpt><trkpt lat="44.73027" lon="9.1439629"><ele>1120.0</ele><time>2026-04-11T10:03:55.342Z</time></trkpt><trkpt lat="44.7302213" lon="9.1440269"><ele>1120.0</ele><time>2026-04-11T10:03:58.324Z</time></trkpt><trkpt lat="44.7301361" lon="9.144109"><ele>1120.0</ele><time>2026-04-11T10:04:00.318Z</time></trkpt><trkpt lat="44.7300781" lon="9.1441502"><ele>1120.0</ele><time>2026-04-11T10:04:01.322Z</time></trkpt><trkpt lat="44.7300167" lon="9.1441926"><ele>1116.4</ele><time>2026-04-11T10:04:02.326Z</time></trkpt><trkpt lat="44.7299583" lon="9.1442453"><ele>1112.8</ele><time>2026-04-11T10:04:03.331Z</time></trkpt><trkpt lat="44.729863" lon="9.1443396"><ele>1109.2</ele><time>2026-04-11T10:04:05.334Z</time></trkpt><trkpt lat="44.7297818" lon="9.144445"><ele>1105.6</ele><time>2026-04-11T10:04:07.333Z</time></trkpt><trkpt lat="44.7296954" lon="9.1445664"><ele>1102.0</ele><time>2026-04-11T10:04:09.335Z</time></trkpt><trkpt lat="44.7296065" lon="9.1446843"><ele>1102.0</ele><time>2026-04-11T10:04:11.329Z</time></trkpt><trkpt lat="44.7295074" lon="9.1447867"><ele>1102.0</ele><time>2026-04-11T10:04:13.329Z</time></trkpt><trkpt lat="44.7294528" lon="9.144831"><ele>1102.0</ele><time>2026-04-11T10:04:14.321Z</time></trkpt><trkpt lat="44.7293522" lon="9.1448981"><ele>1102.0</ele><time>2026-04-11T10:04:16.32Z</time></trkpt><trkpt lat="44.729248" lon="9.1449595"><ele>1102.0</ele><time>2026-04-11T10:04:18.32Z</time></trkpt><trkpt lat="44.7291874" lon="9.1449836"><ele>1100.7142857142856</ele><time>2026-04-11T10:04:19.336Z</time></trkpt><trkpt lat="44.7291242" lon="9.1450117"><ele>1099.4285714285713</ele><time>2026-04-11T10:04:20.322Z</time></trkpt><trkpt lat="44.7290669" lon="9.1450579"><ele>1098.142857142857</ele><time>2026-04-11T10:04:21.339Z</time></trkpt><trkpt lat="44.7290108" lon="9.1451227"><ele>1096.8571428571427</ele><time>2026-04-11T10:04:22.332Z</time></trkpt><trkpt lat="44.7289515" lon="9.1451992"><ele>1095.5714285714284</ele><time>2026-04-11T10:04:23.339Z</time></trkpt><trkpt lat="44.7288976" lon="9.1452751"><ele>1094.2857142857142</ele><time>2026-04-11T10:04:24.342Z</time></trkpt><trkpt lat="44.7288519" lon="9.1453436"><ele>1093.0</ele><time>2026-04-11T10:04:25.331Z</time></trkpt><trkpt lat="44.7287827" lon="9.1454559"><ele>1093.0</ele><time>2026-04-11T10:04:27.324Z</time></trkpt><trkpt lat="44.728733" lon="9.1455985"><ele>1093.0</ele><time>2026-04-11T10:04:29.322Z</time></trkpt><trkpt lat="44.7286849" lon="9.1457097"><ele>1093.0</ele><time>2026-04-11T10:04:31.33Z</time></trkpt><trkpt lat="44.7286262" lon="9.1457856"><ele>1093.0</ele><time>2026-04-11T10:04:33.336Z</time></trkpt><trkpt lat="44.7285609" lon="9.145835"><ele>1093.0</ele><time>2026-04-11T10:04:35.336Z</time></trkpt><trkpt lat="44.7284774" lon="9.1458751"><ele>1093.0</ele><time>2026-04-11T10:04:37.325Z</time></trkpt><trkpt lat="44.7283802" lon="9.1459096"><ele>1091.4</ele><time>2026-04-11T10:04:39.33Z</time></trkpt><trkpt lat="44.7282865" lon="9.1459879"><ele>1089.8</ele><time>2026-04-11T10:04:41.327Z</time></trkpt><trkpt lat="44.728222" lon="9.1461245"><ele>1088.2</ele><time>2026-04-11T10:04:43.312Z</time></trkpt><trkpt lat="44.7281945" lon="9.1462866"><ele>1086.6</ele><time>2026-04-11T10:04:45.311Z</time></trkpt><trkpt lat="44.7281744" lon="9.1463782"><ele>1085.0</ele><time>2026-04-11T10:04:46.314Z</time></trkpt><trkpt lat="44.728163" lon="9.1464751"><ele>1083.857142857143</ele><time>2026-04-11T10:04:47.311Z</time></trkpt><trkpt lat="44.7281568" lon="9.1465774"><ele>1082.7142857142858</ele><time>2026-04-11T10:04:48.316Z</time></trkpt><trkpt lat="44.7281444" lon="9.1466826"><ele>1081.5714285714284</ele><time>2026-04-11T10:04:49.312Z</time></trkpt><trkpt lat="44.7281349" lon="9.1467827"><ele>1080.4285714285716</ele><time>2026-04-11T10:04:50.314Z</time></trkpt><trkpt lat="44.7281249" lon="9.1468816"><ele>1079.2857142857142</ele><time>2026-04-11T10:04:51.311Z</time></trkpt><trkpt lat="44.7281143" lon="9.1469824"><ele>1078.142857142857</ele><time>2026-04-11T10:04:52.314Z</time></trkpt><trkpt lat="44.7281059" lon="9.1470935"><ele>1077.0</ele><time>2026-04-11T10:04:53.314Z</time></trkpt><trkpt lat="44.7280912" lon="9.1472036"><ele>1077.0</ele><time>2026-04-11T10:04:54.314Z</time></trkpt><trkpt lat="44.7280774" lon="9.1473039"><ele>1077.0</ele><time>2026-04-11T10:04:55.318Z</time></trkpt><trkpt lat="44.7280591" lon="9.1473961"><ele>1077.0</ele><time>2026-04-11T10:04:56.32Z</time></trkpt><trkpt lat="44.7280279" lon="9.147535"><ele>1077.0</ele><time>2026-04-11T10:04:58.317Z</time></trkpt><trkpt lat="44.727964" lon="9.1476251"><ele>1077.0</ele><time>2026-04-11T10:05:00.311Z</time></trkpt><trkpt lat="44.7278773" lon="9.1476879"><ele>1077.0</ele><time>2026-04-11T10:05:02.31Z</time></trkpt><trkpt lat="44.7277675" lon="9.1477387"><ele>1074.3333333333333</ele><time>2026-04-11T10:05:04.308Z</time></trkpt><trkpt lat="44.7277071" lon="9.1477641"><ele>1071.6666666666667</ele><time>2026-04-11T10:05:05.315Z</time></trkpt><trkpt lat="44.7276507" lon="9.1478065"><ele>1069.0</ele><time>2026-04-11T10:05:06.309Z</time></trkpt><trkpt lat="44.7276045" lon="9.1478728"><ele>1066.3333333333335</ele><time>2026-04-11T10:05:07.309Z</time></trkpt><trkpt lat="44.7275388" lon="9.1480051"><ele>1063.6666666666667</ele><time>2026-04-11T10:05:09.317Z</time></trkpt><trkpt lat="44.7275081" lon="9.1481358"><ele>1061.0</ele><time>2026-04-11T10:05:11.309Z</time></trkpt><trkpt lat="44.7274577" lon="9.1482094"><ele>1061.0</ele><time>2026-04-11T10:05:14.315Z</time></trkpt><trkpt lat="44.7273785" lon="9.1481576"><ele>1061.0</ele><time>2026-04-11T10:05:17.31Z</time></trkpt><trkpt lat="44.7272897" lon="9.1480924"><ele>1061.0</ele><time>2026-04-11T10:05:19.314Z</time></trkpt><trkpt lat="44.7271776" lon="9.1480631"><ele>1061.0</ele><time>2026-04-11T10:05:21.311Z</time></trkpt><trkpt lat="44.7270645" lon="9.1480195"><ele>1061.0</ele><time>2026-04-11T10:05:23.301Z</time></trkpt><trkpt lat="44.7269535" lon="9.1479683"><ele>1059.3333333333335</ele><time>2026-04-11T10:05:25.311Z</time></trkpt><trkpt lat="44.7268413" lon="9.1479226"><ele>1057.6666666666667</ele><time>2026-04-11T10:05:27.305Z</time></trkpt><trkpt lat="44.7267665" lon="9.1479174"><ele>1056.0</ele><time>2026-04-11T10:05:29.304Z</time></trkpt><trkpt lat="44.7267038" lon="9.1479418"><ele>1054.3333333333333</ele><time>2026-04-11T10:05:31.308Z</time></trkpt><trkpt lat="44.7266244" lon="9.1479249"><ele>1052.6666666666665</ele><time>2026-04-11T10:05:34.307Z</time></trkpt><trkpt lat="44.7265322" lon="9.1478754"><ele>1051.0</ele><time>2026-04-11T10:05:36.307Z</time></trkpt><trkpt lat="44.7264069" lon="9.1479445"><ele>1051.0</ele><time>2026-04-11T10:05:38.308Z</time></trkpt><trkpt lat="44.7263514" lon="9.148031"><ele>1051.0</ele><time>2026-04-11T10:05:39.306Z</time></trkpt><trkpt lat="44.7262955" lon="9.1481101"><ele>1051.0</ele><time>2026-04-11T10:05:40.301Z</time></trkpt><trkpt lat="44.7262211" lon="9.1481557"><ele>1051.0</ele><time>2026-04-11T10:05:41.311Z</time></trkpt><trkpt lat="44.7261432" lon="9.1481572"><ele>1051.0</ele><time>2026-04-11T10:05:42.309Z</time></trkpt><trkpt lat="44.7260532" lon="9.1481036"><ele>1051.0</ele><time>2026-04-11T10:05:43.302Z</time></trkpt><trkpt lat="44.7259514" lon="9.1480033"><ele>1051.8</ele><time>2026-04-11T10:05:44.299Z</time></trkpt><trkpt lat="44.7258494" lon="9.1478897"><ele>1052.6</ele><time>2026-04-11T10:05:45.3Z</time></trkpt><trkpt lat="44.7257601" lon="9.1478082"><ele>1053.4</ele><time>2026-04-11T10:05:46.299Z</time></trkpt><trkpt lat="44.7256864" lon="9.1477396"><ele>1054.2</ele><time>2026-04-11T10:05:47.311Z</time></trkpt><trkpt lat="44.7256174" lon="9.1477032"><ele>1055.0</ele><time>2026-04-11T10:05:48.313Z</time></trkpt><trkpt lat="44.7255401" lon="9.1478055"><ele>1055.0</ele><time>2026-04-11T10:05:50.308Z</time></trkpt><trkpt lat="44.7255419" lon="9.1479426"><ele>1055.0</ele><time>2026-04-11T10:05:51.299Z</time></trkpt><trkpt lat="44.7255471" lon="9.1481027"><ele>1055.0</ele><time>2026-04-11T10:05:52.297Z</time></trkpt><trkpt lat="44.7255425" lon="9.1482741"><ele>1055.0</ele><time>2026-04-11T10:05:53.298Z</time></trkpt><trkpt lat="44.7255408" lon="9.1484376"><ele>1055.0</ele><time>2026-04-11T10:05:54.306Z</time></trkpt><trkpt lat="44.7255147" lon="9.1485916"><ele>1055.75</ele><time>2026-04-11T10:05:55.304Z</time></trkpt><trkpt lat="44.7254759" lon="9.1487549"><ele>1056.5</ele><time>2026-04-11T10:05:56.299Z</time></trkpt><trkpt lat="44.725398" lon="9.1489202"><ele>1057.25</ele><time>2026-04-11T10:05:57.314Z</time></trkpt><trkpt lat="44.7252826" lon="9.1490737"><ele>1058.0</ele><time>2026-04-11T10:05:58.312Z</time></trkpt><trkpt lat="44.7251818" lon="9.1492163"><ele>1058.0</ele><time>2026-04-11T10:05:59.298Z</time></trkpt><trkpt lat="44.7250818" lon="9.1493544"><ele>1058.0</ele><time>2026-04-11T10:06:00.309Z</time></trkpt><trkpt lat="44.7250088" lon="9.1494962"><ele>1058.0</ele><time>2026-04-11T10:06:01.315Z</time></trkpt><trkpt lat="44.724965" lon="9.1496426"><ele>1058.0</ele><time>2026-04-11T10:06:02.303Z</time></trkpt><trkpt lat="44.7249285" lon="9.149793"><ele>1057.0</ele><time>2026-04-11T10:06:03.309Z</time></trkpt><trkpt lat="44.7249" lon="9.1499203"><ele>1056.0</ele><time>2026-04-11T10:06:04.312Z</time></trkpt><trkpt lat="44.7248704" lon="9.1500187"><ele>1055.0</ele><time>2026-04-11T10:06:05.311Z</time></trkpt><trkpt lat="44.7247758" lon="9.1500843"><ele>1054.0</ele><time>2026-04-11T10:06:07.317Z</time></trkpt><trkpt lat="44.7246972" lon="9.1501044"><ele>1053.0</ele><time>2026-04-11T10:06:08.307Z</time></trkpt><trkpt lat="44.7246104" lon="9.1501416"><ele>1052.0</ele><time>2026-04-11T10:06:09.305Z</time></trkpt><trkpt lat="44.7245199" lon="9.1502012"><ele>1052.0</ele><time>2026-04-11T10:06:10.299Z</time></trkpt><trkpt lat="44.7244476" lon="9.150279"><ele>1052.0</ele><time>2026-04-11T10:06:11.311Z</time></trkpt><trkpt lat="44.7243819" lon="9.1503672"><ele>1052.0</ele><time>2026-04-11T10:06:12.301Z</time></trkpt><trkpt lat="44.7243086" lon="9.1504417"><ele>1052.0</ele><time>2026-04-11T10:06:13.301Z</time></trkpt><trkpt lat="44.724229" lon="9.1505174"><ele>1052.0</ele><time>2026-04-11T10:06:14.303Z</time></trkpt><trkpt lat="44.7241401" lon="9.1506108"><ele>1055.0</ele><time>2026-04-11T10:06:15.303Z</time></trkpt><trkpt lat="44.7240267" lon="9.1507063"><ele>1058.0</ele><time>2026-04-11T10:06:16.3Z</time></trkpt><trkpt lat="44.7239031" lon="9.1507862"><ele>1061.0</ele><time>2026-04-11T10:06:17.297Z</time></trkpt><trkpt lat="44.7237667" lon="9.1508578"><ele>1064.0</ele><time>2026-04-11T10:06:18.299Z</time></trkpt><trkpt lat="44.7236468" lon="9.150918"><ele>1067.6666666666667</ele><time>2026-04-11T10:06:19.31Z</time></trkpt><trkpt lat="44.7235457" lon="9.1509684"><ele>1071.3333333333335</ele><time>2026-04-11T10:06:20.3Z</time></trkpt><trkpt lat="44.7234691" lon="9.1509967"><ele>1075.0</ele><time>2026-04-11T10:06:21.308Z</time></trkpt><trkpt lat="44.7234016" lon="9.1510647"><ele>1078.6666666666667</ele><time>2026-04-11T10:06:23.302Z</time></trkpt><trkpt lat="44.723371" lon="9.1511835"><ele>1082.3333333333333</ele><time>2026-04-11T10:06:25.307Z</time></trkpt><trkpt lat="44.7233408" lon="9.1512885"><ele>1086.0</ele><time>2026-04-11T10:06:27.311Z</time></trkpt><trkpt lat="44.7232856" lon="9.1514031"><ele>1086.0</ele><time>2026-04-11T10:06:29.323Z</time></trkpt><trkpt lat="44.7231986" lon="9.1515249"><ele>1086.0</ele><time>2026-04-11T10:06:31.312Z</time></trkpt><trkpt lat="44.7231402" lon="9.1515726"><ele>1086.0</ele><time>2026-04-11T10:06:32.308Z</time></trkpt><trkpt lat="44.7230791" lon="9.1516086"><ele>1086.0</ele><time>2026-04-11T10:06:33.312Z</time></trkpt><trkpt lat="44.7230145" lon="9.1516329"><ele>1086.0</ele><time>2026-04-11T10:06:34.31Z</time></trkpt><trkpt lat="44.7229387" lon="9.1516431"><ele>1086.0</ele><time>2026-04-11T10:06:35.316Z</time></trkpt><trkpt lat="44.7228541" lon="9.1516398"><ele>1087.0</ele><time>2026-04-11T10:06:36.309Z</time></trkpt><trkpt lat="44.7227637" lon="9.1516278"><ele>1088.0</ele><time>2026-04-11T10:06:37.308Z</time></trkpt><trkpt lat="44.7226733" lon="9.1516265"><ele>1089.0</ele><time>2026-04-11T10:06:38.307Z</time></trkpt><trkpt lat="44.7225795" lon="9.1516469"><ele>1090.0</ele><time>2026-04-11T10:06:39.313Z</time></trkpt><trkpt lat="44.7224768" lon="9.1516927"><ele>1091.0</ele><time>2026-04-11T10:06:40.298Z</time></trkpt><trkpt lat="44.722375" lon="9.151746"><ele>1091.0</ele><time>2026-04-11T10:06:41.3Z</time></trkpt><trkpt lat="44.7222791" lon="9.1518074"><ele>1091.0</ele><time>2026-04-11T10:06:42.301Z</time></trkpt><trkpt lat="44.7221939" lon="9.1518994"><ele>1091.0</ele><time>2026-04-11T10:06:43.31Z</time></trkpt><trkpt lat="44.7221277" lon="9.1519956"><ele>1091.0</ele><time>2026-04-11T10:06:44.305Z</time></trkpt><trkpt lat="44.7220738" lon="9.1520937"><ele>1091.0</ele><time>2026-04-11T10:06:45.305Z</time></trkpt><trkpt lat="44.7220299" lon="9.1521743"><ele>1091.0</ele><time>2026-04-11T10:06:46.307Z</time></trkpt><trkpt lat="44.721962" lon="9.1521885"><ele>1091.0</ele><time>2026-04-11T10:06:48.316Z</time></trkpt><trkpt lat="44.7219739" lon="9.1520779"><ele>1091.0</ele><time>2026-04-11T10:06:50.315Z</time></trkpt><trkpt lat="44.7220539" lon="9.1519406"><ele>1091.0</ele><time>2026-04-11T10:06:52.308Z</time></trkpt><trkpt lat="44.7221147" lon="9.1518452"><ele>1091.0</ele><time>2026-04-11T10:06:53.315Z</time></trkpt><trkpt lat="44.7221868" lon="9.1517105"><ele>1091.0</ele><time>2026-04-11T10:06:54.313Z</time></trkpt><trkpt lat="44.7222459" lon="9.1515813"><ele>1091.0</ele><time>2026-04-11T10:06:55.306Z</time></trkpt><trkpt lat="44.7223076" lon="9.1514644"><ele>1091.0</ele><time>2026-04-11T10:06:56.314Z</time></trkpt><trkpt lat="44.7223802" lon="9.1513523"><ele>1091.0</ele><time>2026-04-11T10:06:57.314Z</time></trkpt><trkpt lat="44.7224756" lon="9.1512483"><ele>1091.0</ele><time>2026-04-11T10:06:58.321Z</time></trkpt><trkpt lat="44.7225834" lon="9.1511627"><ele>1089.75</ele><time>2026-04-11T10:06:59.31Z</time></trkpt><trkpt lat="44.7226981" lon="9.1510785"><ele>1088.5</ele><time>2026-04-11T10:07:00.328Z</time></trkpt><trkpt lat="44.7228091" lon="9.1510028"><ele>1087.25</ele><time>2026-04-11T10:07:01.315Z</time></trkpt><trkpt lat="44.7229083" lon="9.1509215"><ele>1086.0</ele><time>2026-04-11T10:07:02.323Z</time></trkpt><trkpt lat="44.7229873" lon="9.1508356"><ele>1086.0</ele><time>2026-04-11T10:07:03.318Z</time></trkpt><trkpt lat="44.7230276" lon="9.150735"><ele>1086.0</ele><time>2026-04-11T10:07:04.319Z</time></trkpt><trkpt lat="44.7230282" lon="9.1506291"><ele>1086.0</ele><time>2026-04-11T10:07:05.32Z</time></trkpt><trkpt lat="44.7229774" lon="9.1505431"><ele>1086.0</ele><time>2026-04-11T10:07:06.311Z</time></trkpt><trkpt lat="44.7229084" lon="9.1504593"><ele>1086.0</ele><time>2026-04-11T10:07:07.317Z</time></trkpt><trkpt lat="44.7228142" lon="9.1503632"><ele>1086.0</ele><time>2026-04-11T10:07:08.319Z</time></trkpt><trkpt lat="44.7227193" lon="9.1502495"><ele>1089.5</ele><time>2026-04-11T10:07:09.304Z</time></trkpt><trkpt lat="44.7226279" lon="9.1501355"><ele>1093.0</ele><time>2026-04-11T10:07:10.302Z</time></trkpt><trkpt lat="44.7225237" lon="9.150017"><ele>1096.5</ele><time>2026-04-11T10:07:11.305Z</time></trkpt><trkpt lat="44.722411" lon="9.1499066"><ele>1100.0</ele><time>2026-04-11T10:07:12.31Z</time></trkpt><trkpt lat="44.7222995" lon="9.1498244"><ele>1100.0</ele><time>2026-04-11T10:07:13.317Z</time></trkpt><trkpt lat="44.7221899" lon="9.1497746"><ele>1100.0</ele><time>2026-04-11T10:07:14.313Z</time></trkpt><trkpt lat="44.7220717" lon="9.1497377"><ele>1100.0</ele><time>2026-04-11T10:07:15.315Z</time></trkpt><trkpt lat="44.7219435" lon="9.1497238"><ele>1100.0</ele><time>2026-04-11T10:07:16.307Z</time></trkpt><trkpt lat="44.7218198" lon="9.1497101"><ele>1103.8</ele><time>2026-04-11T10:07:17.311Z</time></trkpt><trkpt lat="44.7217179" lon="9.1496877"><ele>1107.6</ele><time>2026-04-11T10:07:18.306Z</time></trkpt><trkpt lat="44.7216254" lon="9.1496526"><ele>1111.4</ele><time>2026-04-11T10:07:19.308Z</time></trkpt><trkpt lat="44.7215485" lon="9.149594"><ele>1115.2</ele><time>2026-04-11T10:07:20.306Z</time></trkpt><trkpt lat="44.7214742" lon="9.1495182"><ele>1119.0</ele><time>2026-04-11T10:07:21.316Z</time></trkpt><trkpt lat="44.721422" lon="9.1494305"><ele>1119.0</ele><time>2026-04-11T10:07:22.3Z</time></trkpt><trkpt lat="44.7213823" lon="9.1493352"><ele>1119.0</ele><time>2026-04-11T10:07:23.306Z</time></trkpt><trkpt lat="44.721347" lon="9.1492474"><ele>1119.0</ele><time>2026-04-11T10:07:24.308Z</time></trkpt><trkpt lat="44.7212771" lon="9.1492434"><ele>1119.0</ele><time>2026-04-11T10:07:26.306Z</time></trkpt><trkpt lat="44.7212421" lon="9.1493866"><ele>1119.0</ele><time>2026-04-11T10:07:28.307Z</time></trkpt><trkpt lat="44.7212552" lon="9.149477"><ele>1119.0</ele><time>2026-04-11T10:07:29.307Z</time></trkpt><trkpt lat="44.7212919" lon="9.1496268"><ele>1119.0</ele><time>2026-04-11T10:07:30.302Z</time></trkpt><trkpt lat="44.7213284" lon="9.1498116"><ele>1119.0</ele><time>2026-04-11T10:07:31.31Z</time></trkpt><trkpt lat="44.7213629" lon="9.1499788"><ele>1119.0</ele><time>2026-04-11T10:07:32.293Z</time></trkpt><trkpt lat="44.7214043" lon="9.1501181"><ele>1119.0</ele><time>2026-04-11T10:07:33.304Z</time></trkpt><trkpt lat="44.7214537" lon="9.1502393"><ele>1120.0</ele><time>2026-04-11T10:07:34.299Z</time></trkpt><trkpt lat="44.7214984" lon="9.150341"><ele>1121.0</ele><time>2026-04-11T10:07:35.303Z</time></trkpt><trkpt lat="44.7215199" lon="9.1504397"><ele>1122.0</ele><time>2026-04-11T10:07:36.299Z</time></trkpt><trkpt lat="44.7215315" lon="9.1505378"><ele>1123.0</ele><time>2026-04-11T10:07:37.313Z</time></trkpt><trkpt lat="44.721444" lon="9.1506702"><ele>1124.0</ele><time>2026-04-11T10:07:39.299Z</time></trkpt><trkpt lat="44.7213478" lon="9.1507269"><ele>1124.2</ele><time>2026-04-11T10:07:40.303Z</time></trkpt><trkpt lat="44.721247" lon="9.1507845"><ele>1124.4</ele><time>2026-04-11T10:07:41.305Z</time></trkpt><trkpt lat="44.7211426" lon="9.150854"><ele>1124.6</ele><time>2026-04-11T10:07:42.3Z</time></trkpt><trkpt lat="44.721042" lon="9.1509055"><ele>1124.8</ele><time>2026-04-11T10:07:43.303Z</time></trkpt><trkpt lat="44.7209479" lon="9.1509455"><ele>1125.0</ele><time>2026-04-11T10:07:44.307Z</time></trkpt><trkpt lat="44.7208444" lon="9.1509519"><ele>1128.2</ele><time>2026-04-11T10:07:45.309Z</time></trkpt><trkpt lat="44.7207403" lon="9.1509142"><ele>1131.4</ele><time>2026-04-11T10:07:46.303Z</time></trkpt><trkpt lat="44.7206343" lon="9.1508576"><ele>1134.6</ele><time>2026-04-11T10:07:47.304Z</time></trkpt><trkpt lat="44.7205344" lon="9.1508069"><ele>1137.8</ele><time>2026-04-11T10:07:48.3Z</time></trkpt><trkpt lat="44.7204411" lon="9.150812"><ele>1141.0</ele><time>2026-04-11T10:07:49.306Z</time></trkpt><trkpt lat="44.7203506" lon="9.1508563"><ele>1141.0</ele><time>2026-04-11T10:07:50.304Z</time></trkpt><trkpt lat="44.7202672" lon="9.1509242"><ele>1141.0</ele><time>2026-04-11T10:07:51.308Z</time></trkpt><trkpt lat="44.7201798" lon="9.150997"><ele>1141.0</ele><time>2026-04-11T10:07:52.301Z</time></trkpt><trkpt lat="44.7200827" lon="9.1510313"><ele>1141.0</ele><time>2026-04-11T10:07:53.303Z</time></trkpt><trkpt lat="44.7199875" lon="9.1510465"><ele>1141.0</ele><time>2026-04-11T10:07:54.3Z</time></trkpt><trkpt lat="44.7198995" lon="9.1510423"><ele>1144.3999999999999</ele><time>2026-04-11T10:07:55.303Z</time></trkpt><trkpt lat="44.7198015" lon="9.1510236"><ele>1147.8</ele><time>2026-04-11T10:07:56.301Z</time></trkpt><trkpt lat="44.7196963" lon="9.1510039"><ele>1151.1999999999998</ele><time>2026-04-11T10:07:57.305Z</time></trkpt><trkpt lat="44.7195983" lon="9.1509953"><ele>1154.6</ele><time>2026-04-11T10:07:58.307Z</time></trkpt><trkpt lat="44.7195078" lon="9.1509902"><ele>1158.0</ele><time>2026-04-11T10:07:59.317Z</time></trkpt><trkpt lat="44.7194403" lon="9.151091"><ele>1158.0</ele><time>2026-04-11T10:08:01.317Z</time></trkpt><trkpt lat="44.7194645" lon="9.151188"><ele>1158.0</ele><time>2026-04-11T10:08:02.321Z</time></trkpt><trkpt lat="44.7195106" lon="9.1514054"><ele>1158.0</ele><time>2026-04-11T10:08:04.304Z</time></trkpt><trkpt lat="44.7195346" lon="9.1515819"><ele>1158.0</ele><time>2026-04-11T10:08:05.296Z</time></trkpt><trkpt lat="44.7195608" lon="9.1517479"><ele>1157.75</ele><time>2026-04-11T10:08:06.299Z</time></trkpt><trkpt lat="44.7195982" lon="9.151921"><ele>1157.5</ele><time>2026-04-11T10:08:07.296Z</time></trkpt><trkpt lat="44.7196326" lon="9.1520874"><ele>1157.25</ele><time>2026-04-11T10:08:08.305Z</time></trkpt><trkpt lat="44.7196699" lon="9.1522481"><ele>1157.0</ele><time>2026-04-11T10:08:09.306Z</time></trkpt><trkpt lat="44.7197192" lon="9.1524125"><ele>1157.0</ele><time>2026-04-11T10:08:10.301Z</time></trkpt><trkpt lat="44.7197642" lon="9.1525831"><ele>1157.0</ele><time>2026-04-11T10:08:11.304Z</time></trkpt><trkpt lat="44.7198034" lon="9.1527303"><ele>1157.0</ele><time>2026-04-11T10:08:12.307Z</time></trkpt><trkpt lat="44.7198405" lon="9.1528732"><ele>1157.0</ele><time>2026-04-11T10:08:13.316Z</time></trkpt><trkpt lat="44.7198573" lon="9.1529871"><ele>1157.0</ele><time>2026-04-11T10:08:14.31Z</time></trkpt><trkpt lat="44.719854" lon="9.1530773"><ele>1157.0</ele><time>2026-04-11T10:08:15.309Z</time></trkpt><trkpt lat="44.7198264" lon="9.1531641"><ele>1157.0</ele><time>2026-04-11T10:08:16.309Z</time></trkpt><trkpt lat="44.7197685" lon="9.1532176"><ele>1157.0</ele><time>2026-04-11T10:08:17.312Z</time></trkpt><trkpt lat="44.7196879" lon="9.1532445"><ele>1157.0</ele><time>2026-04-11T10:08:18.309Z</time></trkpt><trkpt lat="44.7195632" lon="9.1532365"><ele>1157.0</ele><time>2026-04-11T10:08:19.294Z</time></trkpt><trkpt lat="44.7194366" lon="9.1532431"><ele>1159.25</ele><time>2026-04-11T10:08:20.307Z</time></trkpt><trkpt lat="44.7192923" lon="9.1532472"><ele>1161.5</ele><time>2026-04-11T10:08:21.297Z</time></trkpt><trkpt lat="44.71916" lon="9.1532408"><ele>1163.75</ele><time>2026-04-11T10:08:22.303Z</time></trkpt><trkpt lat="44.7190408" lon="9.1532243"><ele>1166.0</ele><time>2026-04-11T10:08:23.299Z</time></trkpt><trkpt lat="44.7189296" lon="9.153205"><ele>1168.8</ele><time>2026-04-11T10:08:24.308Z</time></trkpt><trkpt lat="44.7188226" lon="9.1531873"><ele>1171.6</ele><time>2026-04-11T10:08:25.299Z</time></trkpt><trkpt lat="44.7187234" lon="9.1531566"><ele>1174.4</ele><time>2026-04-11T10:08:26.302Z</time></trkpt><trkpt lat="44.7186335" lon="9.1531207"><ele>1177.2</ele><time>2026-04-11T10:08:27.307Z</time></trkpt><trkpt lat="44.7185508" lon="9.153091"><ele>1180.0</ele><time>2026-04-11T10:08:28.312Z</time></trkpt><trkpt lat="44.7184839" lon="9.1530733"><ele>1179.8</ele><time>2026-04-11T10:08:29.313Z</time></trkpt><trkpt lat="44.7183919" lon="9.1530774"><ele>1179.6</ele><time>2026-04-11T10:08:33.318Z</time></trkpt><trkpt lat="44.7183077" lon="9.1531055"><ele>1179.4</ele><time>2026-04-11T10:08:35.312Z</time></trkpt><trkpt lat="44.7182082" lon="9.1531496"><ele>1179.2</ele><time>2026-04-11T10:08:37.306Z</time></trkpt><trkpt lat="44.7181201" lon="9.1532293"><ele>1179.0</ele><time>2026-04-11T10:08:39.312Z</time></trkpt><trkpt lat="44.7180531" lon="9.1532891"><ele>1179.0</ele><time>2026-04-11T10:08:41.311Z</time></trkpt><trkpt lat="44.7179852" lon="9.1533647"><ele>1179.0</ele><time>2026-04-11T10:08:43.305Z</time></trkpt><trkpt lat="44.7178935" lon="9.1534697"><ele>1179.0</ele><time>2026-04-11T10:08:45.307Z</time></trkpt><trkpt lat="44.71784" lon="9.1535266"><ele>1179.0</ele><time>2026-04-11T10:08:46.301Z</time></trkpt><trkpt lat="44.7177758" lon="9.1535678"><ele>1179.0</ele><time>2026-04-11T10:08:47.297Z</time></trkpt><trkpt lat="44.7177082" lon="9.1535909"><ele>1179.0</ele><time>2026-04-11T10:08:48.302Z</time></trkpt><trkpt lat="44.717639" lon="9.1536205"><ele>1183.0</ele><time>2026-04-11T10:08:49.294Z</time></trkpt><trkpt lat="44.7175636" lon="9.1536454"><ele>1187.0</ele><time>2026-04-11T10:08:50.295Z</time></trkpt><trkpt lat="44.7174868" lon="9.1536714"><ele>1191.0</ele><time>2026-04-11T10:08:51.297Z</time></trkpt><trkpt lat="44.7174112" lon="9.1537075"><ele>1195.0</ele><time>2026-04-11T10:08:52.302Z</time></trkpt><trkpt lat="44.7173372" lon="9.1537511"><ele>1199.0</ele><time>2026-04-11T10:08:53.3Z</time></trkpt><trkpt lat="44.717274" lon="9.1537969"><ele>1203.0</ele><time>2026-04-11T10:08:54.297Z</time></trkpt><trkpt lat="44.7172168" lon="9.1538535"><ele>1203.0</ele><time>2026-04-11T10:08:55.296Z</time></trkpt><trkpt lat="44.717129" lon="9.1539556"><ele>1203.0</ele><time>2026-04-11T10:08:57.309Z</time></trkpt><trkpt lat="44.7170203" lon="9.1540039"><ele>1203.0</ele><time>2026-04-11T10:08:59.301Z</time></trkpt><trkpt lat="44.7169552" lon="9.1540189"><ele>1203.0</ele><time>2026-04-11T10:09:00.304Z</time></trkpt><trkpt lat="44.7168807" lon="9.1540299"><ele>1203.0</ele><time>2026-04-11T10:09:01.298Z</time></trkpt><trkpt lat="44.7168063" lon="9.1540396"><ele>1203.0</ele><time>2026-04-11T10:09:02.302Z</time></trkpt><trkpt lat="44.7167334" lon="9.1540427"><ele>1201.5714285714284</ele><time>2026-04-11T10:09:03.296Z</time></trkpt><trkpt lat="44.7166628" lon="9.1540401"><ele>1200.142857142857</ele><time>2026-04-11T10:09:04.316Z</time></trkpt><trkpt lat="44.7165963" lon="9.1540391"><ele>1198.7142857142858</ele><time>2026-04-11T10:09:05.299Z</time></trkpt><trkpt lat="44.7165299" lon="9.1540498"><ele>1197.2857142857142</ele><time>2026-04-11T10:09:06.304Z</time></trkpt><trkpt lat="44.7164641" lon="9.1540575"><ele>1195.857142857143</ele><time>2026-04-11T10:09:07.296Z</time></trkpt><trkpt lat="44.7163943" lon="9.1540685"><ele>1194.4285714285713</ele><time>2026-04-11T10:09:08.306Z</time></trkpt><trkpt lat="44.7163244" lon="9.1541035"><ele>1193.0</ele><time>2026-04-11T10:09:09.298Z</time></trkpt><trkpt lat="44.7162592" lon="9.1541257"><ele>1193.0</ele><time>2026-04-11T10:09:10.299Z</time></trkpt><trkpt lat="44.7161946" lon="9.1541537"><ele>1193.0</ele><time>2026-04-11T10:09:11.295Z</time></trkpt><trkpt lat="44.7160731" lon="9.1542053"><ele>1193.0</ele><time>2026-04-11T10:09:13.3Z</time></trkpt><trkpt lat="44.7160089" lon="9.1542092"><ele>1193.0</ele><time>2026-04-11T10:09:14.301Z</time></trkpt><trkpt lat="44.7158873" lon="9.1541901"><ele>1193.0</ele><time>2026-04-11T10:09:16.31Z</time></trkpt><trkpt lat="44.7157823" lon="9.1541659"><ele>1196.0</ele><time>2026-04-11T10:09:18.311Z</time></trkpt><trkpt lat="44.7156916" lon="9.1542005"><ele>1199.0</ele><time>2026-04-11T10:09:20.315Z</time></trkpt><trkpt lat="44.7156023" lon="9.1542604"><ele>1202.0</ele><time>2026-04-11T10:09:22.303Z</time></trkpt><trkpt lat="44.7155482" lon="9.1543739"><ele>1205.0</ele><time>2026-04-11T10:09:24.311Z</time></trkpt><trkpt lat="44.7155277" lon="9.1544665"><ele>1208.0</ele><time>2026-04-11T10:09:25.302Z</time></trkpt><trkpt lat="44.7155097" lon="9.1545662"><ele>1211.0</ele><time>2026-04-11T10:09:26.301Z</time></trkpt><trkpt lat="44.7154773" lon="9.1547105"><ele>1211.0</ele><time>2026-04-11T10:09:28.315Z</time></trkpt><trkpt lat="44.7154118" lon="9.1547881"><ele>1211.0</ele><time>2026-04-11T10:09:30.318Z</time></trkpt><trkpt lat="44.7153261" lon="9.1548325"><ele>1211.0</ele><time>2026-04-11T10:09:32.317Z</time></trkpt><trkpt lat="44.7152157" lon="9.154872"><ele>1211.0</ele><time>2026-04-11T10:09:34.311Z</time></trkpt><trkpt lat="44.7151213" lon="9.1549591"><ele>1211.0</ele><time>2026-04-11T10:09:36.308Z</time></trkpt><trkpt lat="44.7150231" lon="9.1550485"><ele>1212.5</ele><time>2026-04-11T10:09:38.313Z</time></trkpt><trkpt lat="44.714974" lon="9.1551983"><ele>1214.0</ele><time>2026-04-11T10:09:40.316Z</time></trkpt><trkpt lat="44.7149775" lon="9.1552893"><ele>1215.5</ele><time>2026-04-11T10:09:41.317Z</time></trkpt><trkpt lat="44.7149766" lon="9.155389"><ele>1217.0</ele><time>2026-04-11T10:09:42.307Z</time></trkpt><trkpt lat="44.7149727" lon="9.1554799"><ele>1218.5</ele><time>2026-04-11T10:09:43.314Z</time></trkpt><trkpt lat="44.7149588" lon="9.1556376"><ele>1220.0</ele><time>2026-04-11T10:09:45.318Z</time></trkpt><trkpt lat="44.7148892" lon="9.1557594"><ele>1220.0</ele><time>2026-04-11T10:09:47.322Z</time></trkpt><trkpt lat="44.7148105" lon="9.1557718"><ele>1220.0</ele><time>2026-04-11T10:09:49.321Z</time></trkpt><trkpt lat="44.7147343" lon="9.1557356"><ele>1220.0</ele><time>2026-04-11T10:09:51.314Z</time></trkpt><trkpt lat="44.7146415" lon="9.1557202"><ele>1220.0</ele><time>2026-04-11T10:09:53.312Z</time></trkpt><trkpt lat="44.714533" lon="9.1557548"><ele>1220.0</ele><time>2026-04-11T10:09:55.309Z</time></trkpt><trkpt lat="44.7144436" lon="9.1558657"><ele>1225.8</ele><time>2026-04-11T10:09:57.313Z</time></trkpt><trkpt lat="44.7143887" lon="9.155953"><ele>1231.6</ele><time>2026-04-11T10:09:58.311Z</time></trkpt><trkpt lat="44.7143462" lon="9.1560325"><ele>1237.4</ele><time>2026-04-11T10:09:59.309Z</time></trkpt><trkpt lat="44.7142794" lon="9.1561746"><ele>1243.2</ele><time>2026-04-11T10:10:01.308Z</time></trkpt><trkpt lat="44.7142041" lon="9.1562914"><ele>1249.0</ele><time>2026-04-11T10:10:03.31Z</time></trkpt><trkpt lat="44.7141132" lon="9.1563682"><ele>1249.0</ele><time>2026-04-11T10:10:05.322Z</time></trkpt><trkpt lat="44.7139909" lon="9.1564168"><ele>1249.0</ele><time>2026-04-11T10:10:07.318Z</time></trkpt><trkpt lat="44.7139204" lon="9.1564259"><ele>1249.0</ele><time>2026-04-11T10:10:08.308Z</time></trkpt><trkpt lat="44.7138481" lon="9.1564456"><ele>1249.0</ele><time>2026-04-11T10:10:09.32Z</time></trkpt><trkpt lat="44.7137768" lon="9.1564561"><ele>1249.0</ele><time>2026-04-11T10:10:10.312Z</time></trkpt><trkpt lat="44.7137079" lon="9.1564853"><ele>1249.0</ele><time>2026-04-11T10:10:11.315Z</time></trkpt><trkpt lat="44.7136485" lon="9.1565212"><ele>1250.8</ele><time>2026-04-11T10:10:12.317Z</time></trkpt><trkpt lat="44.7135478" lon="9.1565976"><ele>1252.6000000000001</ele><time>2026-04-11T10:10:14.316Z</time></trkpt><trkpt lat="44.7134456" lon="9.1566615"><ele>1254.4</ele><time>2026-04-11T10:10:16.313Z</time></trkpt><trkpt lat="44.7133286" lon="9.1567041"><ele>1256.2</ele><time>2026-04-11T10:10:18.32Z</time></trkpt><trkpt lat="44.7132335" lon="9.1567236"><ele>1258.0</ele><time>2026-04-11T10:10:20.326Z</time></trkpt><trkpt lat="44.7131131" lon="9.1567125"><ele>1258.0</ele><time>2026-04-11T10:10:22.318Z</time></trkpt><trkpt lat="44.7129963" lon="9.1566954"><ele>1258.0</ele><time>2026-04-11T10:10:24.314Z</time></trkpt><trkpt lat="44.7129026" lon="9.1566953"><ele>1258.0</ele><time>2026-04-11T10:10:26.321Z</time></trkpt><trkpt lat="44.7128565" lon="9.1567711"><ele>1258.0</ele><time>2026-04-11T10:10:28.324Z</time></trkpt><trkpt lat="44.7128289" lon="9.1568982"><ele>1258.0</ele><time>2026-04-11T10:10:30.319Z</time></trkpt><trkpt lat="44.712758" lon="9.1570247"><ele>1262.2</ele><time>2026-04-11T10:10:32.317Z</time></trkpt><trkpt lat="44.7127199" lon="9.1570966"><ele>1266.4</ele><time>2026-04-11T10:10:33.31Z</time></trkpt><trkpt lat="44.7126788" lon="9.1571648"><ele>1270.6000000000001</ele><time>2026-04-11T10:10:34.319Z</time></trkpt><trkpt lat="44.7126022" lon="9.1573014"><ele>1274.8</ele><time>2026-04-11T10:10:36.33Z</time></trkpt><trkpt lat="44.7125369" lon="9.1574387"><ele>1279.0</ele><time>2026-04-11T10:10:38.317Z</time></trkpt><trkpt lat="44.7124606" lon="9.1575463"><ele>1279.0</ele><time>2026-04-11T10:10:40.319Z</time></trkpt><trkpt lat="44.7123712" lon="9.15761"><ele>1279.0</ele><time>2026-04-11T10:10:42.315Z</time></trkpt><trkpt lat="44.7122895" lon="9.1576337"><ele>1279.0</ele><time>2026-04-11T10:11:12.324Z</time></trkpt><trkpt lat="44.7122597" lon="9.1575327"><ele>1279.0</ele><time>2026-04-11T10:11:16.315Z</time></trkpt></trkseg></trk></gpx>